<?xml version="1.0" encoding="UTF-8" standalone="no" ?>
<gpx xmlns="http://www.topografix.com/GPX/1/1" xmlns:xsi="http://www.w3.org/2001/XMLSchema-instance" xsi:schemaLocation="http://www.topografix.com/GPX/1/1 http://www.topografix.com/GPX/1/1/gpx.xsd" version="1.1" creator="VisuGPX - https://www.visugpx.com">
  <metadata>
    <name>Champcueil Père la musique 08-04-2026</name>
    <desc><![CDATA[Rando challenges competition mai 2023]]></desc>
  </metadata>
  <trk>
    <name><![CDATA[2023-10-29 09:19:45]]></name>
    <desc><![CDATA[Rando challenges competition mai 2023 
<p>Type: Marche<br/>Heure de départ: 09:19 29 oct. 2023<br/>Heure d'arrivée: 15:39 29 oct. 2023<br/>Distance: 17,5 km (06:19)<br/>Temps déplacement: 04:49<br/>Vitesse moyenne: 2,76 km/h<br/>Vitesse moyenne mouv.: 3,62 km/h<br/>Vitesse Max.: 18,02 km/h<br/>Altitude minimale: 73 m<br/>Altitude maximale: 158 m<br/>Vitesse de montée: 163,1 m/h<br/>Vitesse de descente: 129,7 m/h<br/>Gain d'altitude: 312 m<br/>Perte d'altitude: 315 m<br/>Temps de montée: 01:54<br/>Temps de descente: 02:26<br/></p><hr align="center" width="480" style="height: 2px; width: 517px"/>]]></desc>
    <extensions>
      <line xmlns="http://www.topografix.com/GPX/gpx_style/0/2">
        <color>FF0019</color>
        <opacity>0.9</opacity>
        <width>7</width>
      </line>
    </extensions>
    <trkseg>
      <trkpt lat="48.51461" lon="2.44363">
        <ele>81</ele>
      </trkpt>
      <trkpt lat="48.51461" lon="2.44363">
        <ele>81</ele>
      </trkpt>
      <trkpt lat="48.51459" lon="2.44367">
        <ele>80.9</ele>
      </trkpt>
      <trkpt lat="48.51446" lon="2.4439">
        <ele>80.1</ele>
      </trkpt>
      <trkpt lat="48.51483" lon="2.44497">
        <ele>80</ele>
      </trkpt>
      <trkpt lat="48.51487" lon="2.44507">
        <ele>80</ele>
      </trkpt>
      <trkpt lat="48.5149" lon="2.44514">
        <ele>80</ele>
      </trkpt>
      <trkpt lat="48.51498" lon="2.44526">
        <ele>80</ele>
      </trkpt>
      <trkpt lat="48.51507" lon="2.44537">
        <ele>80</ele>
      </trkpt>
      <trkpt lat="48.5152" lon="2.44546">
        <ele>80</ele>
      </trkpt>
      <trkpt lat="48.51522" lon="2.44539">
        <ele>80</ele>
      </trkpt>
      <trkpt lat="48.51522" lon="2.44539">
        <ele>80</ele>
      </trkpt>
      <trkpt lat="48.51522" lon="2.44538">
        <ele>91.88</ele>
        <time>2023-10-29T08:36:05.000Z</time>
      </trkpt>
      <trkpt lat="48.51533" lon="2.44515">
        <ele>91.53</ele>
        <time>2023-10-29T08:36:20.000Z</time>
      </trkpt>
      <trkpt lat="48.51544" lon="2.44492">
        <ele>89.81</ele>
        <time>2023-10-29T08:36:38.000Z</time>
      </trkpt>
      <trkpt lat="48.51545" lon="2.4449">
        <ele>80.4</ele>
      </trkpt>
      <trkpt lat="48.51544" lon="2.44491">
        <ele>80.4</ele>
      </trkpt>
      <trkpt lat="48.51574" lon="2.44512">
        <ele>80.7</ele>
      </trkpt>
      <trkpt lat="48.5162" lon="2.44542">
        <ele>80.7</ele>
      </trkpt>
      <trkpt lat="48.51641" lon="2.44555">
        <ele>80</ele>
      </trkpt>
      <trkpt lat="48.51647" lon="2.44557">
        <ele>80</ele>
      </trkpt>
      <trkpt lat="48.5166" lon="2.44561">
        <ele>80</ele>
      </trkpt>
      <trkpt lat="48.51687" lon="2.4457">
        <ele>80</ele>
      </trkpt>
      <trkpt lat="48.5172" lon="2.44581">
        <ele>80</ele>
      </trkpt>
      <trkpt lat="48.51725" lon="2.44584">
        <ele>80</ele>
      </trkpt>
      <trkpt lat="48.51728" lon="2.44588">
        <ele>80</ele>
      </trkpt>
      <trkpt lat="48.51744" lon="2.44535">
        <ele>80</ele>
      </trkpt>
      <trkpt lat="48.51771" lon="2.44558">
        <ele>80</ele>
      </trkpt>
      <trkpt lat="48.51771" lon="2.44558">
        <ele>80</ele>
      </trkpt>
      <trkpt lat="48.51771" lon="2.44558">
        <ele>80</ele>
      </trkpt>
      <trkpt lat="48.51776" lon="2.44561">
        <ele>80</ele>
      </trkpt>
      <trkpt lat="48.51782" lon="2.4456">
        <ele>80</ele>
      </trkpt>
      <trkpt lat="48.51796" lon="2.44552">
        <ele>80</ele>
      </trkpt>
      <trkpt lat="48.51891" lon="2.44505">
        <ele>80</ele>
      </trkpt>
      <trkpt lat="48.51917" lon="2.44491">
        <ele>80</ele>
      </trkpt>
      <trkpt lat="48.51955" lon="2.44471">
        <ele>79</ele>
      </trkpt>
      <trkpt lat="48.51955" lon="2.44471">
        <ele>79</ele>
      </trkpt>
      <trkpt lat="48.51921" lon="2.44164">
        <ele>80.1</ele>
      </trkpt>
      <trkpt lat="48.51919" lon="2.44153">
        <ele>80.5</ele>
      </trkpt>
      <trkpt lat="48.51922" lon="2.44151">
        <ele>80.6</ele>
      </trkpt>
      <trkpt lat="48.51923" lon="2.44154">
        <ele>80.4</ele>
      </trkpt>
      <trkpt lat="48.51924" lon="2.44153">
        <ele>84.89</ele>
        <time>2023-10-29T08:42:46.000Z</time>
      </trkpt>
      <trkpt lat="48.51942" lon="2.44145">
        <ele>82.28</ele>
        <time>2023-10-29T08:43:01.000Z</time>
      </trkpt>
      <trkpt lat="48.5196" lon="2.44135">
        <ele>82.48</ele>
        <time>2023-10-29T08:43:16.000Z</time>
      </trkpt>
      <trkpt lat="48.51977" lon="2.44122">
        <ele>82.12</ele>
        <time>2023-10-29T08:43:30.000Z</time>
      </trkpt>
      <trkpt lat="48.51991" lon="2.44105">
        <ele>82.84</ele>
        <time>2023-10-29T08:43:44.000Z</time>
      </trkpt>
      <trkpt lat="48.52006" lon="2.44089">
        <ele>84.11</ele>
        <time>2023-10-29T08:43:58.000Z</time>
      </trkpt>
      <trkpt lat="48.52019" lon="2.44068">
        <ele>82.74</ele>
        <time>2023-10-29T08:44:12.000Z</time>
      </trkpt>
      <trkpt lat="48.52034" lon="2.4405">
        <ele>81.58</ele>
        <time>2023-10-29T08:44:27.000Z</time>
      </trkpt>
      <trkpt lat="48.52046" lon="2.44029">
        <ele>81.44</ele>
        <time>2023-10-29T08:44:41.000Z</time>
      </trkpt>
      <trkpt lat="48.5206" lon="2.4401">
        <ele>81.84</ele>
        <time>2023-10-29T08:44:55.000Z</time>
      </trkpt>
      <trkpt lat="48.52072" lon="2.4399">
        <ele>81.16</ele>
        <time>2023-10-29T08:45:08.000Z</time>
      </trkpt>
      <trkpt lat="48.52085" lon="2.4397">
        <ele>80.53</ele>
        <time>2023-10-29T08:45:22.000Z</time>
      </trkpt>
      <trkpt lat="48.52096" lon="2.43949">
        <ele>79.91</ele>
        <time>2023-10-29T08:45:35.000Z</time>
      </trkpt>
      <trkpt lat="48.52106" lon="2.43924">
        <ele>80.2</ele>
        <time>2023-10-29T08:45:49.000Z</time>
      </trkpt>
      <trkpt lat="48.52117" lon="2.43901">
        <ele>81.57</ele>
        <time>2023-10-29T08:46:03.000Z</time>
      </trkpt>
      <trkpt lat="48.52129" lon="2.43878">
        <ele>82.63</ele>
        <time>2023-10-29T08:46:16.000Z</time>
      </trkpt>
      <trkpt lat="48.52141" lon="2.43856">
        <ele>84.17</ele>
        <time>2023-10-29T08:46:31.000Z</time>
      </trkpt>
      <trkpt lat="48.52151" lon="2.43832">
        <ele>83.92</ele>
        <time>2023-10-29T08:46:46.000Z</time>
      </trkpt>
      <trkpt lat="48.52156" lon="2.43806">
        <ele>83.93</ele>
        <time>2023-10-29T08:47:00.000Z</time>
      </trkpt>
      <trkpt lat="48.52159" lon="2.43778">
        <ele>84.5</ele>
        <time>2023-10-29T08:47:13.000Z</time>
      </trkpt>
      <trkpt lat="48.52162" lon="2.43751">
        <ele>84.97</ele>
        <time>2023-10-29T08:47:26.000Z</time>
      </trkpt>
      <trkpt lat="48.52166" lon="2.43724">
        <ele>85.18</ele>
        <time>2023-10-29T08:47:39.000Z</time>
      </trkpt>
      <trkpt lat="48.52167" lon="2.43696">
        <ele>85.62</ele>
        <time>2023-10-29T08:47:53.000Z</time>
      </trkpt>
      <trkpt lat="48.5216" lon="2.43671">
        <ele>86.98</ele>
        <time>2023-10-29T08:48:07.000Z</time>
      </trkpt>
      <trkpt lat="48.52161" lon="2.43643">
        <ele>87.62</ele>
        <time>2023-10-29T08:48:28.000Z</time>
      </trkpt>
      <trkpt lat="48.52174" lon="2.43622">
        <ele>87.15</ele>
        <time>2023-10-29T08:48:43.000Z</time>
      </trkpt>
      <trkpt lat="48.5219" lon="2.43606">
        <ele>85.86</ele>
        <time>2023-10-29T08:48:58.000Z</time>
      </trkpt>
      <trkpt lat="48.52192" lon="2.43577">
        <ele>84.22</ele>
        <time>2023-10-29T08:49:13.000Z</time>
      </trkpt>
      <trkpt lat="48.52194" lon="2.43549">
        <ele>83.53</ele>
        <time>2023-10-29T08:49:26.000Z</time>
      </trkpt>
      <trkpt lat="48.52198" lon="2.43521">
        <ele>84.98</ele>
        <time>2023-10-29T08:49:44.000Z</time>
      </trkpt>
      <trkpt lat="48.52202" lon="2.43493">
        <ele>83.9</ele>
        <time>2023-10-29T08:49:59.000Z</time>
      </trkpt>
      <trkpt lat="48.52207" lon="2.43466">
        <ele>83.28</ele>
        <time>2023-10-29T08:50:15.000Z</time>
      </trkpt>
      <trkpt lat="48.52213" lon="2.43439">
        <ele>83.1</ele>
        <time>2023-10-29T08:50:29.000Z</time>
      </trkpt>
      <trkpt lat="48.52221" lon="2.43414">
        <ele>85.71</ele>
        <time>2023-10-29T08:50:43.000Z</time>
      </trkpt>
      <trkpt lat="48.52223" lon="2.43386">
        <ele>90.37</ele>
        <time>2023-10-29T08:51:00.000Z</time>
      </trkpt>
      <trkpt lat="48.5223" lon="2.4336">
        <ele>90.55</ele>
        <time>2023-10-29T08:51:13.000Z</time>
      </trkpt>
      <trkpt lat="48.5224" lon="2.43336">
        <ele>88.39</ele>
        <time>2023-10-29T08:51:23.000Z</time>
      </trkpt>
      <trkpt lat="48.52253" lon="2.43316">
        <ele>87.6</ele>
        <time>2023-10-29T08:51:40.000Z</time>
      </trkpt>
      <trkpt lat="48.52265" lon="2.43294">
        <ele>87.81</ele>
        <time>2023-10-29T08:51:54.000Z</time>
      </trkpt>
      <trkpt lat="48.52273" lon="2.43268">
        <ele>89.8</ele>
        <time>2023-10-29T08:52:08.000Z</time>
      </trkpt>
      <trkpt lat="48.52282" lon="2.43243">
        <ele>93.86</ele>
        <time>2023-10-29T08:52:24.000Z</time>
      </trkpt>
      <trkpt lat="48.52293" lon="2.43221">
        <ele>91.85</ele>
        <time>2023-10-29T08:52:39.000Z</time>
      </trkpt>
      <trkpt lat="48.523" lon="2.43195">
        <ele>88.75</ele>
        <time>2023-10-29T08:52:51.000Z</time>
      </trkpt>
      <trkpt lat="48.52307" lon="2.43169">
        <ele>88.28</ele>
        <time>2023-10-29T08:53:05.000Z</time>
      </trkpt>
      <trkpt lat="48.52319" lon="2.43147">
        <ele>87.36</ele>
        <time>2023-10-29T08:53:23.000Z</time>
      </trkpt>
      <trkpt lat="48.52308" lon="2.43125">
        <ele>83.07</ele>
        <time>2023-10-29T08:53:38.000Z</time>
      </trkpt>
      <trkpt lat="48.5229" lon="2.43113">
        <ele>82.35</ele>
        <time>2023-10-29T08:53:54.000Z</time>
      </trkpt>
      <trkpt lat="48.52275" lon="2.43099">
        <ele>85.24</ele>
        <time>2023-10-29T08:54:11.000Z</time>
      </trkpt>
      <trkpt lat="48.52258" lon="2.43086">
        <ele>85.66</ele>
        <time>2023-10-29T08:54:31.000Z</time>
      </trkpt>
      <trkpt lat="48.52239" lon="2.43082">
        <ele>84.08</ele>
        <time>2023-10-29T08:54:51.000Z</time>
      </trkpt>
      <trkpt lat="48.52223" lon="2.43071">
        <ele>85.63</ele>
        <time>2023-10-29T08:55:05.000Z</time>
      </trkpt>
      <trkpt lat="48.52206" lon="2.4306">
        <ele>87.97</ele>
        <time>2023-10-29T08:55:21.000Z</time>
      </trkpt>
      <trkpt lat="48.5219" lon="2.43048">
        <ele>89.55</ele>
        <time>2023-10-29T08:55:34.000Z</time>
      </trkpt>
      <trkpt lat="48.52174" lon="2.43036">
        <ele>89.71</ele>
        <time>2023-10-29T08:55:47.000Z</time>
      </trkpt>
      <trkpt lat="48.52157" lon="2.43023">
        <ele>90.8</ele>
        <time>2023-10-29T08:56:02.000Z</time>
      </trkpt>
      <trkpt lat="48.52138" lon="2.43015">
        <ele>92.17</ele>
        <time>2023-10-29T08:56:16.000Z</time>
      </trkpt>
      <trkpt lat="48.52121" lon="2.43005">
        <ele>89.19</ele>
        <time>2023-10-29T08:56:30.000Z</time>
      </trkpt>
      <trkpt lat="48.52103" lon="2.42995">
        <ele>87.98</ele>
        <time>2023-10-29T08:56:45.000Z</time>
      </trkpt>
      <trkpt lat="48.52087" lon="2.42982">
        <ele>91.08</ele>
        <time>2023-10-29T08:57:02.000Z</time>
      </trkpt>
      <trkpt lat="48.5207" lon="2.42971">
        <ele>87.58</ele>
        <time>2023-10-29T08:57:56.000Z</time>
      </trkpt>
      <trkpt lat="48.52052" lon="2.42966">
        <ele>89</ele>
        <time>2023-10-29T08:58:11.000Z</time>
      </trkpt>
      <trkpt lat="48.52034" lon="2.42955">
        <ele>91.55</ele>
        <time>2023-10-29T08:58:26.000Z</time>
      </trkpt>
      <trkpt lat="48.52018" lon="2.42943">
        <ele>92.83</ele>
        <time>2023-10-29T08:58:40.000Z</time>
      </trkpt>
      <trkpt lat="48.52" lon="2.42934">
        <ele>96.42</ele>
        <time>2023-10-29T08:58:55.000Z</time>
      </trkpt>
      <trkpt lat="48.51984" lon="2.4292">
        <ele>96.73</ele>
        <time>2023-10-29T08:59:08.000Z</time>
      </trkpt>
      <trkpt lat="48.51967" lon="2.42907">
        <ele>98.07</ele>
        <time>2023-10-29T08:59:22.000Z</time>
      </trkpt>
      <trkpt lat="48.5195" lon="2.42896">
        <ele>100.7</ele>
        <time>2023-10-29T08:59:40.000Z</time>
      </trkpt>
      <trkpt lat="48.51939" lon="2.42873">
        <ele>107.41</ele>
        <time>2023-10-29T09:00:02.000Z</time>
      </trkpt>
      <trkpt lat="48.51921" lon="2.42875">
        <ele>108.59</ele>
        <time>2023-10-29T09:01:14.000Z</time>
      </trkpt>
      <trkpt lat="48.51903" lon="2.42872">
        <ele>107.98</ele>
        <time>2023-10-29T09:01:49.000Z</time>
      </trkpt>
      <trkpt lat="48.51909" lon="2.42846">
        <ele>103.12</ele>
        <time>2023-10-29T09:06:36.000Z</time>
      </trkpt>
      <trkpt lat="48.51911" lon="2.42817">
        <ele>104.2</ele>
        <time>2023-10-29T09:06:57.000Z</time>
      </trkpt>
      <trkpt lat="48.51909" lon="2.4279">
        <ele>103.18</ele>
        <time>2023-10-29T09:07:16.000Z</time>
      </trkpt>
      <trkpt lat="48.51905" lon="2.42761">
        <ele>105.51</ele>
        <time>2023-10-29T09:07:38.000Z</time>
      </trkpt>
      <trkpt lat="48.51907" lon="2.42731">
        <ele>107.47</ele>
        <time>2023-10-29T09:07:49.000Z</time>
      </trkpt>
      <trkpt lat="48.51904" lon="2.42704">
        <ele>107.34</ele>
        <time>2023-10-29T09:08:15.000Z</time>
      </trkpt>
      <trkpt lat="48.51887" lon="2.42692">
        <ele>106.78</ele>
        <time>2023-10-29T09:08:45.000Z</time>
      </trkpt>
      <trkpt lat="48.51889" lon="2.42663">
        <ele>105.34</ele>
        <time>2023-10-29T09:09:02.000Z</time>
      </trkpt>
      <trkpt lat="48.51897" lon="2.42637">
        <ele>111.16</ele>
        <time>2023-10-29T09:09:23.000Z</time>
      </trkpt>
      <trkpt lat="48.51901" lon="2.42611">
        <ele>111.68</ele>
        <time>2023-10-29T09:09:45.000Z</time>
      </trkpt>
      <trkpt lat="48.51916" lon="2.42593">
        <ele>115.93</ele>
        <time>2023-10-29T09:09:59.000Z</time>
      </trkpt>
      <trkpt lat="48.51917" lon="2.42565">
        <ele>116.67</ele>
        <time>2023-10-29T09:10:30.000Z</time>
      </trkpt>
      <trkpt lat="48.51906" lon="2.42544">
        <ele>118.38</ele>
        <time>2023-10-29T09:10:57.000Z</time>
      </trkpt>
      <trkpt lat="48.51908" lon="2.42517">
        <ele>119.3</ele>
        <time>2023-10-29T09:11:16.000Z</time>
      </trkpt>
      <trkpt lat="48.51908" lon="2.42489">
        <ele>118.81</ele>
        <time>2023-10-29T09:11:29.000Z</time>
      </trkpt>
      <trkpt lat="48.51906" lon="2.42462">
        <ele>120.57</ele>
        <time>2023-10-29T09:11:43.000Z</time>
      </trkpt>
      <trkpt lat="48.51907" lon="2.42434">
        <ele>121.33</ele>
        <time>2023-10-29T09:12:16.000Z</time>
      </trkpt>
      <trkpt lat="48.51912" lon="2.42406">
        <ele>122.49</ele>
        <time>2023-10-29T09:12:43.000Z</time>
      </trkpt>
      <trkpt lat="48.51922" lon="2.42382">
        <ele>123.52</ele>
        <time>2023-10-29T09:13:05.000Z</time>
      </trkpt>
      <trkpt lat="48.51935" lon="2.42362">
        <ele>121.54</ele>
        <time>2023-10-29T09:13:22.000Z</time>
      </trkpt>
      <trkpt lat="48.51947" lon="2.42339">
        <ele>120.07</ele>
        <time>2023-10-29T09:13:38.000Z</time>
      </trkpt>
      <trkpt lat="48.51949" lon="2.42339">
        <ele>99.8</ele>
      </trkpt>
      <trkpt lat="48.51964" lon="2.42317">
        <ele>99.9</ele>
      </trkpt>
      <trkpt lat="48.51964" lon="2.42314">
        <ele>108.51</ele>
        <time>2023-10-29T09:16:56.000Z</time>
      </trkpt>
      <trkpt lat="48.51977" lon="2.42295">
        <ele>115.42</ele>
        <time>2023-10-29T09:17:14.000Z</time>
      </trkpt>
      <trkpt lat="48.51986" lon="2.42271">
        <ele>116.42</ele>
        <time>2023-10-29T09:17:29.000Z</time>
      </trkpt>
      <trkpt lat="48.51993" lon="2.42245">
        <ele>115.82</ele>
        <time>2023-10-29T09:21:53.000Z</time>
      </trkpt>
      <trkpt lat="48.51997" lon="2.42215">
        <ele>117.04</ele>
        <time>2023-10-29T09:22:05.000Z</time>
      </trkpt>
      <trkpt lat="48.52008" lon="2.42193">
        <ele>114.53</ele>
        <time>2023-10-29T09:22:24.000Z</time>
      </trkpt>
      <trkpt lat="48.52027" lon="2.42187">
        <ele>114.89</ele>
        <time>2023-10-29T09:22:32.000Z</time>
      </trkpt>
      <trkpt lat="48.52045" lon="2.42177">
        <ele>114.95</ele>
        <time>2023-10-29T09:23:26.000Z</time>
      </trkpt>
      <trkpt lat="48.52062" lon="2.42159">
        <ele>110.69</ele>
        <time>2023-10-29T09:23:47.000Z</time>
      </trkpt>
      <trkpt lat="48.52078" lon="2.42145">
        <ele>112.99</ele>
        <time>2023-10-29T09:23:59.000Z</time>
      </trkpt>
      <trkpt lat="48.52092" lon="2.42126">
        <ele>111.8</ele>
        <time>2023-10-29T09:24:22.000Z</time>
      </trkpt>
      <trkpt lat="48.52107" lon="2.42109">
        <ele>112.01</ele>
        <time>2023-10-29T09:24:38.000Z</time>
      </trkpt>
      <trkpt lat="48.52124" lon="2.42098">
        <ele>115.4</ele>
        <time>2023-10-29T09:24:51.000Z</time>
      </trkpt>
      <trkpt lat="48.52139" lon="2.42084">
        <ele>115.97</ele>
        <time>2023-10-29T09:25:02.000Z</time>
      </trkpt>
      <trkpt lat="48.52155" lon="2.4207">
        <ele>114.86</ele>
        <time>2023-10-29T09:25:16.000Z</time>
      </trkpt>
      <trkpt lat="48.52172" lon="2.42057">
        <ele>115.61</ele>
        <time>2023-10-29T09:25:33.000Z</time>
      </trkpt>
      <trkpt lat="48.52188" lon="2.42044">
        <ele>116.05</ele>
        <time>2023-10-29T09:25:46.000Z</time>
      </trkpt>
      <trkpt lat="48.52204" lon="2.42031">
        <ele>116.9</ele>
        <time>2023-10-29T09:26:03.000Z</time>
      </trkpt>
      <trkpt lat="48.5222" lon="2.42019">
        <ele>117.58</ele>
        <time>2023-10-29T09:26:18.000Z</time>
      </trkpt>
      <trkpt lat="48.52239" lon="2.42027">
        <ele>114.01</ele>
        <time>2023-10-29T09:26:55.000Z</time>
      </trkpt>
      <trkpt lat="48.52257" lon="2.42039">
        <ele>114.11</ele>
        <time>2023-10-29T09:27:07.000Z</time>
      </trkpt>
      <trkpt lat="48.52275" lon="2.4205">
        <ele>109.37</ele>
        <time>2023-10-29T09:27:20.000Z</time>
      </trkpt>
      <trkpt lat="48.52287" lon="2.4203">
        <ele>107.34</ele>
        <time>2023-10-29T09:29:02.000Z</time>
      </trkpt>
      <trkpt lat="48.52292" lon="2.42002">
        <ele>102.49</ele>
        <time>2023-10-29T09:29:21.000Z</time>
      </trkpt>
      <trkpt lat="48.52298" lon="2.41977">
        <ele>103.23</ele>
        <time>2023-10-29T09:29:41.000Z</time>
      </trkpt>
      <trkpt lat="48.52305" lon="2.41947">
        <ele>104.74</ele>
        <time>2023-10-29T09:30:00.000Z</time>
      </trkpt>
      <trkpt lat="48.52308" lon="2.4192">
        <ele>105</ele>
        <time>2023-10-29T09:30:17.000Z</time>
      </trkpt>
      <trkpt lat="48.52316" lon="2.41895">
        <ele>104.57</ele>
        <time>2023-10-29T09:30:37.000Z</time>
      </trkpt>
      <trkpt lat="48.52328" lon="2.41871">
        <ele>106.28</ele>
        <time>2023-10-29T09:30:50.000Z</time>
      </trkpt>
      <trkpt lat="48.52334" lon="2.41845">
        <ele>104.73</ele>
        <time>2023-10-29T09:31:12.000Z</time>
      </trkpt>
      <trkpt lat="48.52328" lon="2.41819">
        <ele>106.67</ele>
        <time>2023-10-29T09:31:31.000Z</time>
      </trkpt>
      <trkpt lat="48.52329" lon="2.41788">
        <ele>108.73</ele>
        <time>2023-10-29T09:31:52.000Z</time>
      </trkpt>
      <trkpt lat="48.52327" lon="2.41761">
        <ele>111.39</ele>
        <time>2023-10-29T09:32:07.000Z</time>
      </trkpt>
      <trkpt lat="48.52328" lon="2.41734">
        <ele>112.23</ele>
        <time>2023-10-29T09:32:26.000Z</time>
      </trkpt>
      <trkpt lat="48.52331" lon="2.41706">
        <ele>113.05</ele>
        <time>2023-10-29T09:32:51.000Z</time>
      </trkpt>
      <trkpt lat="48.52335" lon="2.41678">
        <ele>113.76</ele>
        <time>2023-10-29T09:33:10.000Z</time>
      </trkpt>
      <trkpt lat="48.52332" lon="2.41649">
        <ele>114.29</ele>
        <time>2023-10-29T09:33:34.000Z</time>
      </trkpt>
      <trkpt lat="48.52337" lon="2.41623">
        <ele>115.35</ele>
        <time>2023-10-29T09:34:07.000Z</time>
      </trkpt>
      <trkpt lat="48.52337" lon="2.41595">
        <ele>118.95</ele>
        <time>2023-10-29T09:34:22.000Z</time>
      </trkpt>
      <trkpt lat="48.52337" lon="2.41563">
        <ele>121.84</ele>
        <time>2023-10-29T09:34:31.000Z</time>
      </trkpt>
      <trkpt lat="48.52334" lon="2.41536">
        <ele>125.8</ele>
        <time>2023-10-29T09:34:54.000Z</time>
      </trkpt>
      <trkpt lat="48.52316" lon="2.41534">
        <ele>127.85</ele>
        <time>2023-10-29T09:35:36.000Z</time>
      </trkpt>
      <trkpt lat="48.52298" lon="2.41539">
        <ele>130.75</ele>
        <time>2023-10-29T09:35:53.000Z</time>
      </trkpt>
      <trkpt lat="48.5228" lon="2.4154">
        <ele>131.84</ele>
        <time>2023-10-29T09:36:14.000Z</time>
      </trkpt>
      <trkpt lat="48.52261" lon="2.41544">
        <ele>135.83</ele>
        <time>2023-10-29T09:36:39.001Z</time>
      </trkpt>
      <trkpt lat="48.52243" lon="2.41545">
        <ele>137.58</ele>
        <time>2023-10-29T09:37:06.001Z</time>
      </trkpt>
      <trkpt lat="48.52225" lon="2.41541">
        <ele>140.61</ele>
        <time>2023-10-29T09:37:38.001Z</time>
      </trkpt>
      <trkpt lat="48.52206" lon="2.41538">
        <ele>141.46</ele>
        <time>2023-10-29T09:38:00.001Z</time>
      </trkpt>
      <trkpt lat="48.52187" lon="2.41534">
        <ele>142.25</ele>
        <time>2023-10-29T09:38:25.001Z</time>
      </trkpt>
      <trkpt lat="48.52169" lon="2.4153">
        <ele>141.56</ele>
        <time>2023-10-29T09:38:48.001Z</time>
      </trkpt>
      <trkpt lat="48.52151" lon="2.41525">
        <ele>143.47</ele>
        <time>2023-10-29T09:39:34.001Z</time>
      </trkpt>
      <trkpt lat="48.52136" lon="2.41509">
        <ele>142.01</ele>
        <time>2023-10-29T09:39:52.001Z</time>
      </trkpt>
      <trkpt lat="48.52117" lon="2.41499">
        <ele>142.57</ele>
        <time>2023-10-29T09:40:49.001Z</time>
      </trkpt>
      <trkpt lat="48.52112" lon="2.41473">
        <ele>144.85</ele>
        <time>2023-10-29T09:41:16.000Z</time>
      </trkpt>
      <trkpt lat="48.52106" lon="2.41447">
        <ele>143.76</ele>
        <time>2023-10-29T09:41:42.001Z</time>
      </trkpt>
      <trkpt lat="48.52096" lon="2.41424">
        <ele>143.88</ele>
        <time>2023-10-29T09:41:57.001Z</time>
      </trkpt>
      <trkpt lat="48.52087" lon="2.414">
        <ele>144.02</ele>
        <time>2023-10-29T09:42:19.001Z</time>
      </trkpt>
      <trkpt lat="48.52078" lon="2.41376">
        <ele>143.22</ele>
        <time>2023-10-29T09:42:29.001Z</time>
      </trkpt>
      <trkpt lat="48.5207" lon="2.41352">
        <ele>144.14</ele>
        <time>2023-10-29T09:42:54.001Z</time>
      </trkpt>
      <trkpt lat="48.52065" lon="2.41324">
        <ele>144.49</ele>
        <time>2023-10-29T09:43:12.001Z</time>
      </trkpt>
      <trkpt lat="48.52062" lon="2.41296">
        <ele>143.92</ele>
        <time>2023-10-29T09:43:22.001Z</time>
      </trkpt>
      <trkpt lat="48.52061" lon="2.41268">
        <ele>145.96</ele>
        <time>2023-10-29T09:43:29.001Z</time>
      </trkpt>
      <trkpt lat="48.52059" lon="2.41241">
        <ele>145.39</ele>
        <time>2023-10-29T09:43:48.001Z</time>
      </trkpt>
      <trkpt lat="48.52047" lon="2.4122">
        <ele>145.44</ele>
        <time>2023-10-29T09:44:31.001Z</time>
      </trkpt>
      <trkpt lat="48.5203" lon="2.41205">
        <ele>147.28</ele>
        <time>2023-10-29T09:44:47.001Z</time>
      </trkpt>
      <trkpt lat="48.52014" lon="2.41192">
        <ele>147.64</ele>
        <time>2023-10-29T09:45:13.001Z</time>
      </trkpt>
      <trkpt lat="48.52002" lon="2.41172">
        <ele>145.54</ele>
        <time>2023-10-29T09:45:33.001Z</time>
      </trkpt>
      <trkpt lat="48.51992" lon="2.41148">
        <ele>143.32</ele>
        <time>2023-10-29T09:45:41.001Z</time>
      </trkpt>
      <trkpt lat="48.51981" lon="2.41126">
        <ele>145.57</ele>
        <time>2023-10-29T09:46:06.001Z</time>
      </trkpt>
      <trkpt lat="48.51973" lon="2.41099">
        <ele>145.38</ele>
        <time>2023-10-29T09:46:20.001Z</time>
      </trkpt>
      <trkpt lat="48.51968" lon="2.41072">
        <ele>144.32</ele>
        <time>2023-10-29T09:46:46.001Z</time>
      </trkpt>
      <trkpt lat="48.51967" lon="2.41041">
        <ele>141.7</ele>
        <time>2023-10-29T09:46:57.001Z</time>
      </trkpt>
      <trkpt lat="48.51966" lon="2.41013">
        <ele>140.42</ele>
        <time>2023-10-29T09:47:12.001Z</time>
      </trkpt>
      <trkpt lat="48.5197" lon="2.40987">
        <ele>142.18</ele>
        <time>2023-10-29T09:47:33.001Z</time>
      </trkpt>
      <trkpt lat="48.51972" lon="2.40959">
        <ele>140.18</ele>
        <time>2023-10-29T09:47:47.001Z</time>
      </trkpt>
      <trkpt lat="48.51976" lon="2.40932">
        <ele>137.69</ele>
        <time>2023-10-29T09:48:00.001Z</time>
      </trkpt>
      <trkpt lat="48.51971" lon="2.40906">
        <ele>140.86</ele>
        <time>2023-10-29T09:48:23.001Z</time>
      </trkpt>
      <trkpt lat="48.51967" lon="2.40879">
        <ele>145.37</ele>
        <time>2023-10-29T09:48:43.001Z</time>
      </trkpt>
      <trkpt lat="48.51973" lon="2.40852">
        <ele>145.65</ele>
        <time>2023-10-29T09:48:53.001Z</time>
      </trkpt>
      <trkpt lat="48.51972" lon="2.40822">
        <ele>145.73</ele>
        <time>2023-10-29T09:49:18.001Z</time>
      </trkpt>
      <trkpt lat="48.51971" lon="2.40795">
        <ele>145.86</ele>
        <time>2023-10-29T09:49:32.001Z</time>
      </trkpt>
      <trkpt lat="48.51978" lon="2.40769">
        <ele>146.44</ele>
        <time>2023-10-29T09:50:06.001Z</time>
      </trkpt>
      <trkpt lat="48.51969" lon="2.40745">
        <ele>148.67</ele>
        <time>2023-10-29T09:50:15.001Z</time>
      </trkpt>
      <trkpt lat="48.51964" lon="2.40718">
        <ele>148.68</ele>
        <time>2023-10-29T09:50:41.001Z</time>
      </trkpt>
      <trkpt lat="48.51972" lon="2.40692">
        <ele>149.29</ele>
        <time>2023-10-29T09:51:00.001Z</time>
      </trkpt>
      <trkpt lat="48.51979" lon="2.40666">
        <ele>145.65</ele>
        <time>2023-10-29T09:51:16.000Z</time>
      </trkpt>
      <trkpt lat="48.51982" lon="2.40639">
        <ele>143.67</ele>
        <time>2023-10-29T09:51:33.001Z</time>
      </trkpt>
      <trkpt lat="48.51988" lon="2.40613">
        <ele>143.35</ele>
        <time>2023-10-29T09:51:50.001Z</time>
      </trkpt>
      <trkpt lat="48.51989" lon="2.40584">
        <ele>146.24</ele>
        <time>2023-10-29T09:52:09.001Z</time>
      </trkpt>
      <trkpt lat="48.51991" lon="2.40557">
        <ele>143.64</ele>
        <time>2023-10-29T09:52:55.001Z</time>
      </trkpt>
      <trkpt lat="48.52006" lon="2.40539">
        <ele>140.36</ele>
        <time>2023-10-29T09:53:07.001Z</time>
      </trkpt>
      <trkpt lat="48.52019" lon="2.40519">
        <ele>142.38</ele>
        <time>2023-10-29T09:53:23.001Z</time>
      </trkpt>
      <trkpt lat="48.52033" lon="2.405">
        <ele>142.63</ele>
        <time>2023-10-29T09:53:48.001Z</time>
      </trkpt>
      <trkpt lat="48.5204" lon="2.40475">
        <ele>143.96</ele>
        <time>2023-10-29T09:54:09.001Z</time>
      </trkpt>
      <trkpt lat="48.52043" lon="2.40448">
        <ele>143.63</ele>
        <time>2023-10-29T09:54:49.001Z</time>
      </trkpt>
      <trkpt lat="48.52045" lon="2.4042">
        <ele>141.13</ele>
        <time>2023-10-29T09:55:30.001Z</time>
      </trkpt>
      <trkpt lat="48.52043" lon="2.40391">
        <ele>137.39</ele>
        <time>2023-10-29T09:56:01.001Z</time>
      </trkpt>
      <trkpt lat="48.52033" lon="2.40367">
        <ele>135.59</ele>
        <time>2023-10-29T09:56:26.001Z</time>
      </trkpt>
      <trkpt lat="48.52026" lon="2.40343">
        <ele>135.69</ele>
        <time>2023-10-29T09:56:59.001Z</time>
      </trkpt>
      <trkpt lat="48.52022" lon="2.40316">
        <ele>135.58</ele>
        <time>2023-10-29T09:57:56.001Z</time>
      </trkpt>
      <trkpt lat="48.52023" lon="2.40288">
        <ele>130.88</ele>
        <time>2023-10-29T09:58:53.001Z</time>
      </trkpt>
      <trkpt lat="48.52026" lon="2.4026">
        <ele>127.47</ele>
        <time>2023-10-29T09:59:08.001Z</time>
      </trkpt>
      <trkpt lat="48.52026" lon="2.40232">
        <ele>124.19</ele>
        <time>2023-10-29T10:01:43.001Z</time>
      </trkpt>
      <trkpt lat="48.52037" lon="2.4021">
        <ele>111.63</ele>
        <time>2023-10-29T10:05:24.001Z</time>
      </trkpt>
      <trkpt lat="48.52045" lon="2.40185">
        <ele>109.68</ele>
        <time>2023-10-29T10:05:39.001Z</time>
      </trkpt>
      <trkpt lat="48.52053" lon="2.4016">
        <ele>105.68</ele>
        <time>2023-10-29T10:05:57.001Z</time>
      </trkpt>
      <trkpt lat="48.52064" lon="2.40139">
        <ele>97.83</ele>
        <time>2023-10-29T10:06:14.001Z</time>
      </trkpt>
      <trkpt lat="48.52071" lon="2.40113">
        <ele>88.67</ele>
        <time>2023-10-29T10:06:40.001Z</time>
      </trkpt>
      <trkpt lat="48.52083" lon="2.40091">
        <ele>88.41</ele>
        <time>2023-10-29T10:06:52.001Z</time>
      </trkpt>
      <trkpt lat="48.52077" lon="2.40065">
        <ele>86.25</ele>
        <time>2023-10-29T10:07:39.001Z</time>
      </trkpt>
      <trkpt lat="48.52062" lon="2.40048">
        <ele>84.51</ele>
        <time>2023-10-29T10:07:54.001Z</time>
      </trkpt>
      <trkpt lat="48.5205" lon="2.40027">
        <ele>83.47</ele>
        <time>2023-10-29T10:08:14.001Z</time>
      </trkpt>
      <trkpt lat="48.5204" lon="2.40004">
        <ele>82.82</ele>
        <time>2023-10-29T10:08:29.001Z</time>
      </trkpt>
      <trkpt lat="48.52024" lon="2.40018">
        <ele>81.95</ele>
        <time>2023-10-29T10:22:18.001Z</time>
      </trkpt>
      <trkpt lat="48.52013" lon="2.4004">
        <ele>84.46</ele>
        <time>2023-10-29T10:22:47.001Z</time>
      </trkpt>
      <trkpt lat="48.52003" lon="2.40065">
        <ele>86.04</ele>
        <time>2023-10-29T10:22:58.001Z</time>
      </trkpt>
      <trkpt lat="48.51994" lon="2.40088">
        <ele>88.09</ele>
        <time>2023-10-29T10:23:15.001Z</time>
      </trkpt>
      <trkpt lat="48.51985" lon="2.40114">
        <ele>89.99</ele>
        <time>2023-10-29T10:23:30.001Z</time>
      </trkpt>
      <trkpt lat="48.51977" lon="2.40139">
        <ele>94.55</ele>
        <time>2023-10-29T10:23:46.001Z</time>
      </trkpt>
      <trkpt lat="48.51965" lon="2.40161">
        <ele>98.53</ele>
        <time>2023-10-29T10:24:07.001Z</time>
      </trkpt>
      <trkpt lat="48.51956" lon="2.40185">
        <ele>99.29</ele>
        <time>2023-10-29T10:24:32.001Z</time>
      </trkpt>
      <trkpt lat="48.51947" lon="2.40208">
        <ele>100.01</ele>
        <time>2023-10-29T10:24:50.001Z</time>
      </trkpt>
      <trkpt lat="48.51938" lon="2.40232">
        <ele>99.81</ele>
        <time>2023-10-29T10:25:04.001Z</time>
      </trkpt>
      <trkpt lat="48.51932" lon="2.40259">
        <ele>101.57</ele>
        <time>2023-10-29T10:25:23.001Z</time>
      </trkpt>
      <trkpt lat="48.51927" lon="2.40285">
        <ele>102.87</ele>
        <time>2023-10-29T10:25:40.001Z</time>
      </trkpt>
      <trkpt lat="48.51918" lon="2.40309">
        <ele>104.38</ele>
        <time>2023-10-29T10:25:51.001Z</time>
      </trkpt>
      <trkpt lat="48.51908" lon="2.40333">
        <ele>105.07</ele>
        <time>2023-10-29T10:26:26.001Z</time>
      </trkpt>
      <trkpt lat="48.51893" lon="2.40351">
        <ele>106.28</ele>
        <time>2023-10-29T10:26:34.001Z</time>
      </trkpt>
      <trkpt lat="48.51875" lon="2.40348">
        <ele>112.36</ele>
        <time>2023-10-29T10:26:54.001Z</time>
      </trkpt>
      <trkpt lat="48.51859" lon="2.40333">
        <ele>115.31</ele>
        <time>2023-10-29T10:27:11.001Z</time>
      </trkpt>
      <trkpt lat="48.51841" lon="2.40336">
        <ele>120.18</ele>
        <time>2023-10-29T10:27:39.001Z</time>
      </trkpt>
      <trkpt lat="48.51823" lon="2.40341">
        <ele>121.86</ele>
        <time>2023-10-29T10:29:55.001Z</time>
      </trkpt>
      <trkpt lat="48.51805" lon="2.40346">
        <ele>123.03</ele>
        <time>2023-10-29T10:30:23.001Z</time>
      </trkpt>
      <trkpt lat="48.51791" lon="2.40363">
        <ele>126.43</ele>
        <time>2023-10-29T10:30:36.001Z</time>
      </trkpt>
      <trkpt lat="48.51771" lon="2.40369">
        <ele>125.29</ele>
        <time>2023-10-29T10:31:19.001Z</time>
      </trkpt>
      <trkpt lat="48.51751" lon="2.40366">
        <ele>128.37</ele>
        <time>2023-10-29T10:32:03.001Z</time>
      </trkpt>
      <trkpt lat="48.51737" lon="2.40383">
        <ele>130.45</ele>
        <time>2023-10-29T10:32:48.001Z</time>
      </trkpt>
      <trkpt lat="48.5174" lon="2.40412">
        <ele>136.35</ele>
        <time>2023-10-29T10:33:17.001Z</time>
      </trkpt>
      <trkpt lat="48.51742" lon="2.40439">
        <ele>139.83</ele>
        <time>2023-10-29T10:34:06.001Z</time>
      </trkpt>
      <trkpt lat="48.51742" lon="2.40467">
        <ele>138.69</ele>
        <time>2023-10-29T10:34:29.001Z</time>
      </trkpt>
      <trkpt lat="48.51742" lon="2.40494">
        <ele>138.52</ele>
        <time>2023-10-29T10:34:45.001Z</time>
      </trkpt>
      <trkpt lat="48.51742" lon="2.40513">
        <ele>138</ele>
      </trkpt>
      <trkpt lat="48.51741" lon="2.40515">
        <ele>138</ele>
      </trkpt>
      <trkpt lat="48.51818" lon="2.40526">
        <ele>140.4</ele>
      </trkpt>
      <trkpt lat="48.51828" lon="2.40527">
        <ele>140.8</ele>
      </trkpt>
      <trkpt lat="48.51844" lon="2.40571">
        <ele>141.2</ele>
      </trkpt>
      <trkpt lat="48.51843" lon="2.40613">
        <ele>141.3</ele>
      </trkpt>
      <trkpt lat="48.51842" lon="2.40699">
        <ele>141.4</ele>
      </trkpt>
      <trkpt lat="48.51838" lon="2.40851">
        <ele>142</ele>
      </trkpt>
      <trkpt lat="48.51837" lon="2.40906">
        <ele>142.1</ele>
      </trkpt>
      <trkpt lat="48.51835" lon="2.40997">
        <ele>141.1</ele>
      </trkpt>
      <trkpt lat="48.51835" lon="2.40998">
        <ele>141.1</ele>
      </trkpt>
      <trkpt lat="48.51828" lon="2.41273">
        <ele>141.8</ele>
      </trkpt>
      <trkpt lat="48.51828" lon="2.4132">
        <ele>141.9</ele>
      </trkpt>
      <trkpt lat="48.518" lon="2.41338">
        <ele>141.8</ele>
      </trkpt>
      <trkpt lat="48.51735" lon="2.41376">
        <ele>140.5</ele>
      </trkpt>
      <trkpt lat="48.51708" lon="2.41394">
        <ele>139.6</ele>
      </trkpt>
      <trkpt lat="48.51651" lon="2.41426">
        <ele>138.4</ele>
      </trkpt>
      <trkpt lat="48.51608" lon="2.41449">
        <ele>137.1</ele>
      </trkpt>
      <trkpt lat="48.51602" lon="2.41449">
        <ele>137.1</ele>
      </trkpt>
      <trkpt lat="48.51603" lon="2.41446">
        <ele>137</ele>
      </trkpt>
      <trkpt lat="48.51601" lon="2.41445">
        <ele>137</ele>
      </trkpt>
      <trkpt lat="48.51593" lon="2.41456">
        <ele>146.99</ele>
        <time>2023-10-29T10:46:02.000Z</time>
      </trkpt>
      <trkpt lat="48.51576" lon="2.41448">
        <ele>136.75</ele>
        <time>2023-10-29T10:47:15.001Z</time>
      </trkpt>
      <trkpt lat="48.5156" lon="2.41463">
        <ele>137.87</ele>
        <time>2023-10-29T10:47:39.001Z</time>
      </trkpt>
      <trkpt lat="48.5155" lon="2.41487">
        <ele>137.7</ele>
        <time>2023-10-29T10:47:55.001Z</time>
      </trkpt>
      <trkpt lat="48.51542" lon="2.41511">
        <ele>146.35</ele>
        <time>2023-10-29T10:48:24.001Z</time>
      </trkpt>
      <trkpt lat="48.51526" lon="2.41526">
        <ele>143.35</ele>
        <time>2023-10-29T10:48:37.001Z</time>
      </trkpt>
      <trkpt lat="48.51512" lon="2.41544">
        <ele>142.98</ele>
        <time>2023-10-29T10:48:53.001Z</time>
      </trkpt>
      <trkpt lat="48.51498" lon="2.41562">
        <ele>144.6</ele>
        <time>2023-10-29T10:49:11.001Z</time>
      </trkpt>
      <trkpt lat="48.51492" lon="2.41589">
        <ele>146.8</ele>
        <time>2023-10-29T10:49:39.001Z</time>
      </trkpt>
      <trkpt lat="48.51505" lon="2.41608">
        <ele>144.3</ele>
        <time>2023-10-29T10:50:06.001Z</time>
      </trkpt>
      <trkpt lat="48.51523" lon="2.41608">
        <ele>144.7</ele>
        <time>2023-10-29T10:50:22.001Z</time>
      </trkpt>
      <trkpt lat="48.51536" lon="2.41627">
        <ele>143.79</ele>
        <time>2023-10-29T10:50:35.001Z</time>
      </trkpt>
      <trkpt lat="48.51551" lon="2.41643">
        <ele>143.03</ele>
        <time>2023-10-29T10:50:54.001Z</time>
      </trkpt>
      <trkpt lat="48.51567" lon="2.41656">
        <ele>142.4</ele>
        <time>2023-10-29T10:51:12.001Z</time>
      </trkpt>
      <trkpt lat="48.51584" lon="2.41666">
        <ele>142.06</ele>
        <time>2023-10-29T10:51:24.001Z</time>
      </trkpt>
      <trkpt lat="48.516" lon="2.41678">
        <ele>142</ele>
        <time>2023-10-29T10:51:38.001Z</time>
      </trkpt>
      <trkpt lat="48.51618" lon="2.41691">
        <ele>141.32</ele>
        <time>2023-10-29T10:51:48.001Z</time>
      </trkpt>
      <trkpt lat="48.51635" lon="2.41703">
        <ele>141.66</ele>
        <time>2023-10-29T10:52:08.001Z</time>
      </trkpt>
      <trkpt lat="48.51652" lon="2.41712">
        <ele>142.4</ele>
        <time>2023-10-29T10:52:20.001Z</time>
      </trkpt>
      <trkpt lat="48.51668" lon="2.41725">
        <ele>142.97</ele>
        <time>2023-10-29T10:52:36.001Z</time>
      </trkpt>
      <trkpt lat="48.51683" lon="2.4174">
        <ele>144.69</ele>
        <time>2023-10-29T10:52:50.001Z</time>
      </trkpt>
      <trkpt lat="48.51702" lon="2.41749">
        <ele>143.5</ele>
        <time>2023-10-29T10:53:03.001Z</time>
      </trkpt>
      <trkpt lat="48.51718" lon="2.41764">
        <ele>145.44</ele>
        <time>2023-10-29T10:53:20.001Z</time>
      </trkpt>
      <trkpt lat="48.51736" lon="2.41764">
        <ele>147.88</ele>
        <time>2023-10-29T10:53:32.001Z</time>
      </trkpt>
      <trkpt lat="48.51755" lon="2.41764">
        <ele>148.73</ele>
        <time>2023-10-29T10:53:50.001Z</time>
      </trkpt>
      <trkpt lat="48.51769" lon="2.41747">
        <ele>151.67</ele>
        <time>2023-10-29T10:54:03.001Z</time>
      </trkpt>
      <trkpt lat="48.51781" lon="2.41727">
        <ele>150.12</ele>
        <time>2023-10-29T10:54:19.001Z</time>
      </trkpt>
      <trkpt lat="48.51789" lon="2.41702">
        <ele>151.33</ele>
        <time>2023-10-29T10:54:32.001Z</time>
      </trkpt>
      <trkpt lat="48.51802" lon="2.41681">
        <ele>148.12</ele>
        <time>2023-10-29T10:54:50.001Z</time>
      </trkpt>
      <trkpt lat="48.5182" lon="2.41678">
        <ele>144</ele>
        <time>2023-10-29T10:55:45.001Z</time>
      </trkpt>
      <trkpt lat="48.51838" lon="2.41677">
        <ele>140.64</ele>
        <time>2023-10-29T10:56:07.001Z</time>
      </trkpt>
      <trkpt lat="48.51857" lon="2.41671">
        <ele>141.5</ele>
        <time>2023-10-29T10:56:15.001Z</time>
      </trkpt>
      <trkpt lat="48.51877" lon="2.41664">
        <ele>143.72</ele>
        <time>2023-10-29T10:56:22.001Z</time>
      </trkpt>
      <trkpt lat="48.51894" lon="2.41657">
        <ele>146.51</ele>
        <time>2023-10-29T10:56:30.001Z</time>
      </trkpt>
      <trkpt lat="48.51911" lon="2.41644">
        <ele>148.22</ele>
        <time>2023-10-29T10:56:52.001Z</time>
      </trkpt>
      <trkpt lat="48.51927" lon="2.41633">
        <ele>149.35</ele>
        <time>2023-10-29T10:57:16.000Z</time>
      </trkpt>
      <trkpt lat="48.51921" lon="2.41659">
        <ele>148.14</ele>
        <time>2023-10-29T10:59:22.001Z</time>
      </trkpt>
      <trkpt lat="48.51921" lon="2.41686">
        <ele>148.14</ele>
        <time>2023-10-29T10:59:42.001Z</time>
      </trkpt>
      <trkpt lat="48.51916" lon="2.41713">
        <ele>149.93</ele>
        <time>2023-10-29T10:59:58.001Z</time>
      </trkpt>
      <trkpt lat="48.51915" lon="2.41741">
        <ele>150.8</ele>
        <time>2023-10-29T11:00:37.001Z</time>
      </trkpt>
      <trkpt lat="48.51912" lon="2.41769">
        <ele>151.91</ele>
        <time>2023-10-29T11:01:45.001Z</time>
      </trkpt>
      <trkpt lat="48.51921" lon="2.41794">
        <ele>148.37</ele>
        <time>2023-10-29T11:02:09.001Z</time>
      </trkpt>
      <trkpt lat="48.51861" lon="2.41918">
        <ele>147.6</ele>
        <time>2023-10-29T11:02:10.001Z</time>
      </trkpt>
      <trkpt lat="48.51853" lon="2.41964">
        <ele>146.79</ele>
        <time>2023-10-29T11:02:12.001Z</time>
      </trkpt>
      <trkpt lat="48.51853" lon="2.41994">
        <ele>144.57</ele>
        <time>2023-10-29T11:02:43.001Z</time>
      </trkpt>
      <trkpt lat="48.51858" lon="2.42021">
        <ele>145.48</ele>
        <time>2023-10-29T11:02:51.001Z</time>
      </trkpt>
      <trkpt lat="48.51849" lon="2.42045">
        <ele>147.4</ele>
        <time>2023-10-29T11:03:21.001Z</time>
      </trkpt>
      <trkpt lat="48.51843" lon="2.42071">
        <ele>149.35</ele>
        <time>2023-10-29T11:03:30.001Z</time>
      </trkpt>
      <trkpt lat="48.51831" lon="2.42092">
        <ele>145.92</ele>
        <time>2023-10-29T11:03:50.001Z</time>
      </trkpt>
      <trkpt lat="48.51812" lon="2.42085">
        <ele>144.55</ele>
        <time>2023-10-29T11:04:05.001Z</time>
      </trkpt>
      <trkpt lat="48.51796" lon="2.42069">
        <ele>145.46</ele>
        <time>2023-10-29T11:04:22.001Z</time>
      </trkpt>
      <trkpt lat="48.51779" lon="2.4206">
        <ele>147.61</ele>
        <time>2023-10-29T11:04:43.001Z</time>
      </trkpt>
      <trkpt lat="48.51761" lon="2.42075">
        <ele>147.88</ele>
        <time>2023-10-29T11:05:11.001Z</time>
      </trkpt>
      <trkpt lat="48.51747" lon="2.42094">
        <ele>149.95</ele>
        <time>2023-10-29T11:05:16.000Z</time>
      </trkpt>
      <trkpt lat="48.51735" lon="2.42117">
        <ele>151.35</ele>
        <time>2023-10-29T11:05:31.001Z</time>
      </trkpt>
      <trkpt lat="48.5173" lon="2.42147">
        <ele>151.26</ele>
        <time>2023-10-29T11:05:47.001Z</time>
      </trkpt>
      <trkpt lat="48.51725" lon="2.42176">
        <ele>148.86</ele>
        <time>2023-10-29T11:05:59.001Z</time>
      </trkpt>
      <trkpt lat="48.51717" lon="2.42201">
        <ele>150.49</ele>
        <time>2023-10-29T11:06:17.001Z</time>
      </trkpt>
      <trkpt lat="48.517" lon="2.42213">
        <ele>154.07</ele>
        <time>2023-10-29T11:06:30.001Z</time>
      </trkpt>
      <trkpt lat="48.51685" lon="2.42232">
        <ele>154.61</ele>
        <time>2023-10-29T11:06:56.001Z</time>
      </trkpt>
      <trkpt lat="48.51674" lon="2.42253">
        <ele>153.93</ele>
        <time>2023-10-29T11:07:14.001Z</time>
      </trkpt>
      <trkpt lat="48.5166" lon="2.42272">
        <ele>154.85</ele>
        <time>2023-10-29T11:07:19.001Z</time>
      </trkpt>
      <trkpt lat="48.51653" lon="2.42298">
        <ele>154.9</ele>
        <time>2023-10-29T11:07:32.001Z</time>
      </trkpt>
      <trkpt lat="48.51646" lon="2.42323">
        <ele>157.87</ele>
        <time>2023-10-29T11:08:00.001Z</time>
      </trkpt>
      <trkpt lat="48.51638" lon="2.42349">
        <ele>158.71</ele>
        <time>2023-10-29T11:08:07.001Z</time>
      </trkpt>
      <trkpt lat="48.51626" lon="2.42371">
        <ele>156.05</ele>
        <time>2023-10-29T11:08:17.001Z</time>
      </trkpt>
      <trkpt lat="48.51611" lon="2.42389">
        <ele>157.1</ele>
        <time>2023-10-29T11:08:33.001Z</time>
      </trkpt>
      <trkpt lat="48.51611" lon="2.42417">
        <ele>158.28</ele>
        <time>2023-10-29T11:09:15.001Z</time>
      </trkpt>
      <trkpt lat="48.51608" lon="2.42446">
        <ele>160.94</ele>
        <time>2023-10-29T11:09:28.001Z</time>
      </trkpt>
      <trkpt lat="48.51605" lon="2.42474">
        <ele>158.54</ele>
        <time>2023-10-29T11:09:43.001Z</time>
      </trkpt>
      <trkpt lat="48.51602" lon="2.42503">
        <ele>156.99</ele>
        <time>2023-10-29T11:09:53.001Z</time>
      </trkpt>
      <trkpt lat="48.51599" lon="2.4253">
        <ele>151.58</ele>
        <time>2023-10-29T11:10:04.001Z</time>
      </trkpt>
      <trkpt lat="48.51599" lon="2.42559">
        <ele>149</ele>
        <time>2023-10-29T11:10:17.001Z</time>
      </trkpt>
      <trkpt lat="48.51605" lon="2.42586">
        <ele>146.97</ele>
        <time>2023-10-29T11:10:32.001Z</time>
      </trkpt>
      <trkpt lat="48.51612" lon="2.42611">
        <ele>146.52</ele>
        <time>2023-10-29T11:10:46.001Z</time>
      </trkpt>
      <trkpt lat="48.51616" lon="2.42638">
        <ele>148.42</ele>
        <time>2023-10-29T11:11:00.001Z</time>
      </trkpt>
      <trkpt lat="48.5162" lon="2.42665">
        <ele>150.56</ele>
        <time>2023-10-29T11:11:16.000Z</time>
      </trkpt>
      <trkpt lat="48.5162" lon="2.42694">
        <ele>152.17</ele>
        <time>2023-10-29T11:11:30.001Z</time>
      </trkpt>
      <trkpt lat="48.51611" lon="2.42719">
        <ele>154.16</ele>
        <time>2023-10-29T11:11:57.001Z</time>
      </trkpt>
      <trkpt lat="48.51611" lon="2.42748">
        <ele>148.03</ele>
        <time>2023-10-29T11:12:14.001Z</time>
      </trkpt>
      <trkpt lat="48.51608" lon="2.42776">
        <ele>149.06</ele>
        <time>2023-10-29T11:12:27.001Z</time>
      </trkpt>
      <trkpt lat="48.51603" lon="2.42802">
        <ele>149.79</ele>
        <time>2023-10-29T11:12:37.001Z</time>
      </trkpt>
      <trkpt lat="48.51596" lon="2.42828">
        <ele>150.38</ele>
        <time>2023-10-29T11:12:48.001Z</time>
      </trkpt>
      <trkpt lat="48.51589" lon="2.42855">
        <ele>150.3</ele>
        <time>2023-10-29T11:13:10.001Z</time>
      </trkpt>
      <trkpt lat="48.51582" lon="2.42881">
        <ele>148.14</ele>
        <time>2023-10-29T11:13:25.001Z</time>
      </trkpt>
      <trkpt lat="48.51576" lon="2.42908">
        <ele>145.89</ele>
        <time>2023-10-29T11:13:41.001Z</time>
      </trkpt>
      <trkpt lat="48.51578" lon="2.42935">
        <ele>144.2</ele>
        <time>2023-10-29T11:14:01.001Z</time>
      </trkpt>
      <trkpt lat="48.51561" lon="2.42924">
        <ele>146.53</ele>
        <time>2023-10-29T11:17:28.001Z</time>
      </trkpt>
      <trkpt lat="48.51546" lon="2.42907">
        <ele>148.66</ele>
        <time>2023-10-29T11:17:40.001Z</time>
      </trkpt>
      <trkpt lat="48.51531" lon="2.42891">
        <ele>152.53</ele>
        <time>2023-10-29T11:17:56.001Z</time>
      </trkpt>
      <trkpt lat="48.51515" lon="2.42877">
        <ele>154.47</ele>
        <time>2023-10-29T11:18:14.001Z</time>
      </trkpt>
      <trkpt lat="48.51497" lon="2.42874">
        <ele>151.19</ele>
        <time>2023-10-29T11:18:54.001Z</time>
      </trkpt>
      <trkpt lat="48.51478" lon="2.42872">
        <ele>150.46</ele>
        <time>2023-10-29T11:19:12.001Z</time>
      </trkpt>
      <trkpt lat="48.51459" lon="2.42865">
        <ele>155.7</ele>
        <time>2023-10-29T11:19:26.001Z</time>
      </trkpt>
      <trkpt lat="48.51441" lon="2.42861">
        <ele>156.9</ele>
        <time>2023-10-29T11:19:36.001Z</time>
      </trkpt>
      <trkpt lat="48.51423" lon="2.42864">
        <ele>155.29</ele>
        <time>2023-10-29T11:19:49.001Z</time>
      </trkpt>
      <trkpt lat="48.51404" lon="2.4287">
        <ele>151.82</ele>
        <time>2023-10-29T11:20:00.001Z</time>
      </trkpt>
      <trkpt lat="48.51386" lon="2.42877">
        <ele>148.8</ele>
        <time>2023-10-29T11:20:14.001Z</time>
      </trkpt>
      <trkpt lat="48.51371" lon="2.42895">
        <ele>146.46</ele>
        <time>2023-10-29T11:20:28.001Z</time>
      </trkpt>
      <trkpt lat="48.51368" lon="2.42922">
        <ele>147.43</ele>
        <time>2023-10-29T11:20:49.001Z</time>
      </trkpt>
      <trkpt lat="48.51356" lon="2.42944">
        <ele>147.68</ele>
        <time>2023-10-29T11:21:18.001Z</time>
      </trkpt>
      <trkpt lat="48.51345" lon="2.42965">
        <ele>148.61</ele>
        <time>2023-10-29T11:21:31.001Z</time>
      </trkpt>
      <trkpt lat="48.51331" lon="2.42986">
        <ele>147.92</ele>
        <time>2023-10-29T11:21:42.001Z</time>
      </trkpt>
      <trkpt lat="48.5132" lon="2.43008">
        <ele>147.47</ele>
        <time>2023-10-29T11:21:59.001Z</time>
      </trkpt>
      <trkpt lat="48.51309" lon="2.4303">
        <ele>150.44</ele>
        <time>2023-10-29T11:22:28.001Z</time>
      </trkpt>
      <trkpt lat="48.51295" lon="2.4305">
        <ele>152.77</ele>
        <time>2023-10-29T11:22:40.001Z</time>
      </trkpt>
      <trkpt lat="48.51281" lon="2.43068">
        <ele>153.34</ele>
        <time>2023-10-29T11:22:58.001Z</time>
      </trkpt>
      <trkpt lat="48.51264" lon="2.43078">
        <ele>152.31</ele>
        <time>2023-10-29T11:23:16.000Z</time>
      </trkpt>
      <trkpt lat="48.51246" lon="2.43093">
        <ele>149.11</ele>
        <time>2023-10-29T11:23:29.001Z</time>
      </trkpt>
      <trkpt lat="48.51229" lon="2.43105">
        <ele>147.96</ele>
        <time>2023-10-29T11:23:41.001Z</time>
      </trkpt>
      <trkpt lat="48.51212" lon="2.43115">
        <ele>146.8</ele>
        <time>2023-10-29T11:23:53.001Z</time>
      </trkpt>
      <trkpt lat="48.51195" lon="2.43125">
        <ele>148.67</ele>
        <time>2023-10-29T11:24:11.001Z</time>
      </trkpt>
      <trkpt lat="48.5118" lon="2.4314">
        <ele>147.67</ele>
        <time>2023-10-29T11:24:25.001Z</time>
      </trkpt>
      <trkpt lat="48.51161" lon="2.43146">
        <ele>147.35</ele>
        <time>2023-10-29T11:24:35.001Z</time>
      </trkpt>
      <trkpt lat="48.51142" lon="2.43149">
        <ele>151.19</ele>
        <time>2023-10-29T11:24:47.001Z</time>
      </trkpt>
      <trkpt lat="48.51124" lon="2.43143">
        <ele>149.02</ele>
        <time>2023-10-29T11:25:29.001Z</time>
      </trkpt>
      <trkpt lat="48.51106" lon="2.43138">
        <ele>147.83</ele>
        <time>2023-10-29T11:25:46.001Z</time>
      </trkpt>
      <trkpt lat="48.5109" lon="2.43122">
        <ele>151.4</ele>
        <time>2023-10-29T11:26:00.001Z</time>
      </trkpt>
      <trkpt lat="48.51074" lon="2.43108">
        <ele>152.66</ele>
        <time>2023-10-29T11:26:13.001Z</time>
      </trkpt>
      <trkpt lat="48.51058" lon="2.43093">
        <ele>154.54</ele>
        <time>2023-10-29T11:26:29.001Z</time>
      </trkpt>
      <trkpt lat="48.51043" lon="2.43077">
        <ele>157.29</ele>
        <time>2023-10-29T11:26:47.001Z</time>
      </trkpt>
      <trkpt lat="48.51025" lon="2.43084">
        <ele>155.73</ele>
        <time>2023-10-29T11:27:07.001Z</time>
      </trkpt>
      <trkpt lat="48.51008" lon="2.43096">
        <ele>148.18</ele>
        <time>2023-10-29T11:27:32.001Z</time>
      </trkpt>
      <trkpt lat="48.51005" lon="2.43124">
        <ele>145.22</ele>
        <time>2023-10-29T11:29:10.001Z</time>
      </trkpt>
      <trkpt lat="48.51009" lon="2.43151">
        <ele>141.02</ele>
        <time>2023-10-29T11:29:36.001Z</time>
      </trkpt>
      <trkpt lat="48.51023" lon="2.43171">
        <ele>141.82</ele>
        <time>2023-10-29T11:29:46.001Z</time>
      </trkpt>
      <trkpt lat="48.51034" lon="2.43192">
        <ele>139.19</ele>
        <time>2023-10-29T11:30:03.001Z</time>
      </trkpt>
      <trkpt lat="48.51048" lon="2.43212">
        <ele>133.71</ele>
        <time>2023-10-29T11:30:25.001Z</time>
      </trkpt>
      <trkpt lat="48.51051" lon="2.43239">
        <ele>128.74</ele>
        <time>2023-10-29T11:30:40.001Z</time>
      </trkpt>
      <trkpt lat="48.51054" lon="2.43266">
        <ele>128.81</ele>
        <time>2023-10-29T11:31:01.001Z</time>
      </trkpt>
      <trkpt lat="48.5106" lon="2.43293">
        <ele>128.4</ele>
        <time>2023-10-29T11:31:18.001Z</time>
      </trkpt>
      <trkpt lat="48.5106" lon="2.43321">
        <ele>125.03</ele>
        <time>2023-10-29T11:31:35.001Z</time>
      </trkpt>
      <trkpt lat="48.5106" lon="2.43321">
        <ele>106.8</ele>
      </trkpt>
      <trkpt lat="48.51064" lon="2.43341">
        <ele>112.04</ele>
        <time>2023-10-29T11:57:06.001Z</time>
      </trkpt>
      <trkpt lat="48.51064" lon="2.43341">
        <ele>106.3</ele>
      </trkpt>
      <trkpt lat="48.51072" lon="2.43366">
        <ele>105.22</ele>
        <time>2023-10-29T11:57:22.001Z</time>
      </trkpt>
      <trkpt lat="48.51081" lon="2.43393">
        <ele>103.67</ele>
        <time>2023-10-29T11:57:31.001Z</time>
      </trkpt>
      <trkpt lat="48.51089" lon="2.43418">
        <ele>103.09</ele>
        <time>2023-10-29T11:57:45.001Z</time>
      </trkpt>
      <trkpt lat="48.51099" lon="2.43441">
        <ele>100.45</ele>
        <time>2023-10-29T11:57:58.001Z</time>
      </trkpt>
      <trkpt lat="48.51108" lon="2.43466">
        <ele>100.05</ele>
        <time>2023-10-29T11:58:12.001Z</time>
      </trkpt>
      <trkpt lat="48.5111" lon="2.43494">
        <ele>103.29</ele>
        <time>2023-10-29T11:58:30.001Z</time>
      </trkpt>
      <trkpt lat="48.51108" lon="2.43521">
        <ele>104.35</ele>
        <time>2023-10-29T11:58:52.001Z</time>
      </trkpt>
      <trkpt lat="48.51101" lon="2.43548">
        <ele>101.63</ele>
        <time>2023-10-29T11:59:13.001Z</time>
      </trkpt>
      <trkpt lat="48.51104" lon="2.43577">
        <ele>91.06</ele>
        <time>2023-10-29T11:59:23.001Z</time>
      </trkpt>
      <trkpt lat="48.51111" lon="2.43604">
        <ele>78.32</ele>
        <time>2023-10-29T11:59:33.001Z</time>
      </trkpt>
      <trkpt lat="48.51117" lon="2.43631">
        <ele>70.99</ele>
        <time>2023-10-29T11:59:52.001Z</time>
      </trkpt>
      <trkpt lat="48.51124" lon="2.43656">
        <ele>69.96</ele>
        <time>2023-10-29T12:00:11.001Z</time>
      </trkpt>
      <trkpt lat="48.51128" lon="2.43683">
        <ele>75.02</ele>
        <time>2023-10-29T12:00:27.001Z</time>
      </trkpt>
      <trkpt lat="48.51139" lon="2.43706">
        <ele>82.95</ele>
        <time>2023-10-29T12:00:45.001Z</time>
      </trkpt>
      <trkpt lat="48.51153" lon="2.43726">
        <ele>88.23</ele>
        <time>2023-10-29T12:01:03.001Z</time>
      </trkpt>
      <trkpt lat="48.51171" lon="2.43736">
        <ele>85.22</ele>
        <time>2023-10-29T12:01:16.000Z</time>
      </trkpt>
      <trkpt lat="48.51187" lon="2.43752">
        <ele>81.06</ele>
        <time>2023-10-29T12:01:31.001Z</time>
      </trkpt>
      <trkpt lat="48.51203" lon="2.43768">
        <ele>75.39</ele>
        <time>2023-10-29T12:01:42.001Z</time>
      </trkpt>
      <trkpt lat="48.51191" lon="2.4379">
        <ele>77.32</ele>
        <time>2023-10-29T12:02:08.001Z</time>
      </trkpt>
      <trkpt lat="48.51173" lon="2.43797">
        <ele>78.39</ele>
        <time>2023-10-29T12:02:21.001Z</time>
      </trkpt>
      <trkpt lat="48.51156" lon="2.43807">
        <ele>79.6</ele>
        <time>2023-10-29T12:02:37.001Z</time>
      </trkpt>
      <trkpt lat="48.51139" lon="2.43817">
        <ele>77.08</ele>
        <time>2023-10-29T12:02:52.001Z</time>
      </trkpt>
      <trkpt lat="48.51122" lon="2.4383">
        <ele>78.8</ele>
        <time>2023-10-29T12:03:07.001Z</time>
      </trkpt>
      <trkpt lat="48.51103" lon="2.43831">
        <ele>81.89</ele>
        <time>2023-10-29T12:03:22.001Z</time>
      </trkpt>
      <trkpt lat="48.51086" lon="2.43821">
        <ele>86.42</ele>
        <time>2023-10-29T12:03:35.001Z</time>
      </trkpt>
      <trkpt lat="48.51068" lon="2.43812">
        <ele>90.15</ele>
        <time>2023-10-29T12:03:48.001Z</time>
      </trkpt>
      <trkpt lat="48.51049" lon="2.43811">
        <ele>90.47</ele>
        <time>2023-10-29T12:04:04.001Z</time>
      </trkpt>
      <trkpt lat="48.51031" lon="2.43818">
        <ele>87.38</ele>
        <time>2023-10-29T12:04:19.001Z</time>
      </trkpt>
      <trkpt lat="48.51013" lon="2.43823">
        <ele>82.57</ele>
        <time>2023-10-29T12:04:37.001Z</time>
      </trkpt>
      <trkpt lat="48.50995" lon="2.43828">
        <ele>80.66</ele>
        <time>2023-10-29T12:04:53.001Z</time>
      </trkpt>
      <trkpt lat="48.5098" lon="2.43844">
        <ele>80.81</ele>
        <time>2023-10-29T12:05:11.001Z</time>
      </trkpt>
      <trkpt lat="48.50975" lon="2.43871">
        <ele>80.43</ele>
        <time>2023-10-29T12:05:29.001Z</time>
      </trkpt>
      <trkpt lat="48.50974" lon="2.43899">
        <ele>82.66</ele>
        <time>2023-10-29T12:05:44.001Z</time>
      </trkpt>
      <trkpt lat="48.50971" lon="2.43928">
        <ele>84.42</ele>
        <time>2023-10-29T12:05:57.001Z</time>
      </trkpt>
      <trkpt lat="48.50962" lon="2.43954">
        <ele>82.08</ele>
        <time>2023-10-29T12:06:10.001Z</time>
      </trkpt>
      <trkpt lat="48.50952" lon="2.43978">
        <ele>83.65</ele>
        <time>2023-10-29T12:06:26.001Z</time>
      </trkpt>
      <trkpt lat="48.50942" lon="2.44003">
        <ele>84.11</ele>
        <time>2023-10-29T12:06:41.001Z</time>
      </trkpt>
      <trkpt lat="48.50934" lon="2.44028">
        <ele>84.56</ele>
        <time>2023-10-29T12:06:56.001Z</time>
      </trkpt>
      <trkpt lat="48.50929" lon="2.44055">
        <ele>84.05</ele>
        <time>2023-10-29T12:07:11.001Z</time>
      </trkpt>
      <trkpt lat="48.50924" lon="2.44082">
        <ele>84.95</ele>
        <time>2023-10-29T12:07:26.001Z</time>
      </trkpt>
      <trkpt lat="48.50921" lon="2.4411">
        <ele>86.75</ele>
        <time>2023-10-29T12:07:42.001Z</time>
      </trkpt>
      <trkpt lat="48.50914" lon="2.44137">
        <ele>91.21</ele>
        <time>2023-10-29T12:08:14.001Z</time>
      </trkpt>
      <trkpt lat="48.50905" lon="2.44161">
        <ele>92.21</ele>
        <time>2023-10-29T12:08:25.001Z</time>
      </trkpt>
      <trkpt lat="48.50899" lon="2.44188">
        <ele>90.41</ele>
        <time>2023-10-29T12:08:41.001Z</time>
      </trkpt>
      <trkpt lat="48.50894" lon="2.44215">
        <ele>88.95</ele>
        <time>2023-10-29T12:08:56.001Z</time>
      </trkpt>
      <trkpt lat="48.50888" lon="2.44241">
        <ele>88.74</ele>
        <time>2023-10-29T12:09:13.001Z</time>
      </trkpt>
      <trkpt lat="48.50881" lon="2.44267">
        <ele>88.68</ele>
        <time>2023-10-29T12:09:30.001Z</time>
      </trkpt>
      <trkpt lat="48.50876" lon="2.44293">
        <ele>90.06</ele>
        <time>2023-10-29T12:09:47.001Z</time>
      </trkpt>
      <trkpt lat="48.5087" lon="2.4432">
        <ele>85.61</ele>
        <time>2023-10-29T12:10:02.000Z</time>
      </trkpt>
      <trkpt lat="48.50866" lon="2.44348">
        <ele>84.74</ele>
        <time>2023-10-29T12:10:17.001Z</time>
      </trkpt>
      <trkpt lat="48.50867" lon="2.44375">
        <ele>84.74</ele>
        <time>2023-10-29T12:10:30.001Z</time>
      </trkpt>
      <trkpt lat="48.5087" lon="2.44402">
        <ele>85.4</ele>
        <time>2023-10-29T12:10:45.001Z</time>
      </trkpt>
      <trkpt lat="48.50873" lon="2.4443">
        <ele>85.96</ele>
        <time>2023-10-29T12:10:59.001Z</time>
      </trkpt>
      <trkpt lat="48.50876" lon="2.44458">
        <ele>85.59</ele>
        <time>2023-10-29T12:11:12.001Z</time>
      </trkpt>
      <trkpt lat="48.50878" lon="2.44486">
        <ele>84.01</ele>
        <time>2023-10-29T12:11:25.001Z</time>
      </trkpt>
      <trkpt lat="48.50876" lon="2.44514">
        <ele>83.26</ele>
        <time>2023-10-29T12:11:38.001Z</time>
      </trkpt>
      <trkpt lat="48.50875" lon="2.44543">
        <ele>82.83</ele>
        <time>2023-10-29T12:11:52.001Z</time>
      </trkpt>
      <trkpt lat="48.50874" lon="2.44572">
        <ele>83.71</ele>
        <time>2023-10-29T12:12:05.001Z</time>
      </trkpt>
      <trkpt lat="48.50874" lon="2.44601">
        <ele>87.21</ele>
        <time>2023-10-29T12:12:17.001Z</time>
      </trkpt>
      <trkpt lat="48.50874" lon="2.4463">
        <ele>88.26</ele>
        <time>2023-10-29T12:12:32.001Z</time>
      </trkpt>
      <trkpt lat="48.50876" lon="2.44658">
        <ele>86.63</ele>
        <time>2023-10-29T12:12:48.001Z</time>
      </trkpt>
      <trkpt lat="48.50876" lon="2.44686">
        <ele>87.9</ele>
        <time>2023-10-29T12:13:02.000Z</time>
      </trkpt>
      <trkpt lat="48.50876" lon="2.44715">
        <ele>90.67</ele>
        <time>2023-10-29T12:13:15.001Z</time>
      </trkpt>
      <trkpt lat="48.50877" lon="2.44743">
        <ele>93.94</ele>
        <time>2023-10-29T12:13:31.001Z</time>
      </trkpt>
      <trkpt lat="48.50875" lon="2.44771">
        <ele>96.62</ele>
        <time>2023-10-29T12:13:42.001Z</time>
      </trkpt>
      <trkpt lat="48.50875" lon="2.44799">
        <ele>101.1</ele>
        <time>2023-10-29T12:13:54.001Z</time>
      </trkpt>
      <trkpt lat="48.50866" lon="2.44824">
        <ele>101.12</ele>
        <time>2023-10-29T12:14:10.001Z</time>
      </trkpt>
      <trkpt lat="48.5085" lon="2.44838">
        <ele>100.48</ele>
        <time>2023-10-29T12:14:24.001Z</time>
      </trkpt>
      <trkpt lat="48.50836" lon="2.44855">
        <ele>104.35</ele>
        <time>2023-10-29T12:14:40.001Z</time>
      </trkpt>
      <trkpt lat="48.50824" lon="2.44876">
        <ele>104.77</ele>
        <time>2023-10-29T12:15:02.000Z</time>
      </trkpt>
      <trkpt lat="48.50807" lon="2.44884">
        <ele>99.16</ele>
        <time>2023-10-29T12:16:30.001Z</time>
      </trkpt>
      <trkpt lat="48.50797" lon="2.44908">
        <ele>99.59</ele>
        <time>2023-10-29T12:16:41.001Z</time>
      </trkpt>
      <trkpt lat="48.50784" lon="2.4493">
        <ele>98.39</ele>
        <time>2023-10-29T12:16:57.001Z</time>
      </trkpt>
      <trkpt lat="48.5077" lon="2.44947">
        <ele>98.27</ele>
        <time>2023-10-29T12:17:11.001Z</time>
      </trkpt>
      <trkpt lat="48.50757" lon="2.44967">
        <ele>97.46</ele>
        <time>2023-10-29T12:17:28.001Z</time>
      </trkpt>
      <trkpt lat="48.50742" lon="2.44984">
        <ele>97.63</ele>
        <time>2023-10-29T12:17:50.001Z</time>
      </trkpt>
      <trkpt lat="48.50724" lon="2.44991">
        <ele>104.52</ele>
        <time>2023-10-29T12:18:09.001Z</time>
      </trkpt>
      <trkpt lat="48.50706" lon="2.44999">
        <ele>107.19</ele>
        <time>2023-10-29T12:18:23.001Z</time>
      </trkpt>
      <trkpt lat="48.50689" lon="2.4501">
        <ele>109.38</ele>
        <time>2023-10-29T12:18:40.001Z</time>
      </trkpt>
      <trkpt lat="48.50671" lon="2.4502">
        <ele>107.75</ele>
        <time>2023-10-29T12:18:54.001Z</time>
      </trkpt>
      <trkpt lat="48.50655" lon="2.45031">
        <ele>111.02</ele>
        <time>2023-10-29T12:19:14.001Z</time>
      </trkpt>
      <trkpt lat="48.50637" lon="2.45041">
        <ele>118.16</ele>
        <time>2023-10-29T12:19:35.001Z</time>
      </trkpt>
      <trkpt lat="48.50621" lon="2.45055">
        <ele>121.67</ele>
        <time>2023-10-29T12:20:51.001Z</time>
      </trkpt>
      <trkpt lat="48.50603" lon="2.4506">
        <ele>121</ele>
        <time>2023-10-29T12:21:09.001Z</time>
      </trkpt>
      <trkpt lat="48.50586" lon="2.45069">
        <ele>124.68</ele>
        <time>2023-10-29T12:21:44.001Z</time>
      </trkpt>
      <trkpt lat="48.50569" lon="2.45079">
        <ele>126.85</ele>
        <time>2023-10-29T12:22:14.001Z</time>
      </trkpt>
      <trkpt lat="48.50553" lon="2.45092">
        <ele>129.63</ele>
        <time>2023-10-29T12:22:44.001Z</time>
      </trkpt>
      <trkpt lat="48.50535" lon="2.45097">
        <ele>136.7</ele>
        <time>2023-10-29T12:24:01.001Z</time>
      </trkpt>
      <trkpt lat="48.50518" lon="2.45106">
        <ele>141.5</ele>
        <time>2023-10-29T12:24:14.001Z</time>
      </trkpt>
      <trkpt lat="48.50504" lon="2.45124">
        <ele>142.7</ele>
        <time>2023-10-29T12:24:33.001Z</time>
      </trkpt>
      <trkpt lat="48.50496" lon="2.4515">
        <ele>143.66</ele>
        <time>2023-10-29T12:24:48.001Z</time>
      </trkpt>
      <trkpt lat="48.50494" lon="2.45177">
        <ele>144.39</ele>
        <time>2023-10-29T12:25:04.001Z</time>
      </trkpt>
      <trkpt lat="48.50484" lon="2.45201">
        <ele>149.52</ele>
        <time>2023-10-29T12:28:31.001Z</time>
      </trkpt>
      <trkpt lat="48.5048" lon="2.45229">
        <ele>151.56</ele>
        <time>2023-10-29T12:28:43.001Z</time>
      </trkpt>
      <trkpt lat="48.50478" lon="2.45258">
        <ele>152.79</ele>
        <time>2023-10-29T12:29:02.000Z</time>
      </trkpt>
      <trkpt lat="48.50475" lon="2.45285">
        <ele>153.73</ele>
        <time>2023-10-29T12:29:13.001Z</time>
      </trkpt>
      <trkpt lat="48.50471" lon="2.45313">
        <ele>151.48</ele>
        <time>2023-10-29T12:29:32.001Z</time>
      </trkpt>
      <trkpt lat="48.50467" lon="2.4534">
        <ele>151.38</ele>
        <time>2023-10-29T12:29:49.001Z</time>
      </trkpt>
      <trkpt lat="48.50463" lon="2.45369">
        <ele>151.24</ele>
        <time>2023-10-29T12:30:05.001Z</time>
      </trkpt>
      <trkpt lat="48.50458" lon="2.45396">
        <ele>152.01</ele>
        <time>2023-10-29T12:30:18.001Z</time>
      </trkpt>
      <trkpt lat="48.50452" lon="2.45424">
        <ele>152.48</ele>
        <time>2023-10-29T12:30:34.001Z</time>
      </trkpt>
      <trkpt lat="48.50447" lon="2.4545">
        <ele>155.39</ele>
        <time>2023-10-29T12:30:50.001Z</time>
      </trkpt>
      <trkpt lat="48.50444" lon="2.45477">
        <ele>151.65</ele>
        <time>2023-10-29T12:31:04.001Z</time>
      </trkpt>
      <trkpt lat="48.50439" lon="2.45505">
        <ele>152.94</ele>
        <time>2023-10-29T12:31:31.001Z</time>
      </trkpt>
      <trkpt lat="48.50434" lon="2.45532">
        <ele>153.22</ele>
        <time>2023-10-29T12:31:39.001Z</time>
      </trkpt>
      <trkpt lat="48.5043" lon="2.45558">
        <ele>154.2</ele>
        <time>2023-10-29T12:31:51.001Z</time>
      </trkpt>
      <trkpt lat="48.50426" lon="2.45585">
        <ele>156.1</ele>
        <time>2023-10-29T12:32:01.001Z</time>
      </trkpt>
      <trkpt lat="48.50416" lon="2.45608">
        <ele>152.5</ele>
        <time>2023-10-29T12:32:15.001Z</time>
      </trkpt>
      <trkpt lat="48.50406" lon="2.45632">
        <ele>151.23</ele>
        <time>2023-10-29T12:32:30.001Z</time>
      </trkpt>
      <trkpt lat="48.50397" lon="2.45657">
        <ele>153.01</ele>
        <time>2023-10-29T12:32:46.001Z</time>
      </trkpt>
      <trkpt lat="48.50389" lon="2.45683">
        <ele>151.58</ele>
        <time>2023-10-29T12:33:04.001Z</time>
      </trkpt>
      <trkpt lat="48.50382" lon="2.45709">
        <ele>153.95</ele>
        <time>2023-10-29T12:33:21.001Z</time>
      </trkpt>
      <trkpt lat="48.50381" lon="2.45737">
        <ele>155.23</ele>
        <time>2023-10-29T12:33:36.001Z</time>
      </trkpt>
      <trkpt lat="48.50375" lon="2.45764">
        <ele>155.6</ele>
        <time>2023-10-29T12:33:54.001Z</time>
      </trkpt>
      <trkpt lat="48.50369" lon="2.4579">
        <ele>152.57</ele>
        <time>2023-10-29T12:34:06.001Z</time>
      </trkpt>
      <trkpt lat="48.50362" lon="2.45816">
        <ele>151.76</ele>
        <time>2023-10-29T12:39:57.001Z</time>
      </trkpt>
      <trkpt lat="48.50353" lon="2.4584">
        <ele>149.69</ele>
        <time>2023-10-29T12:40:17.001Z</time>
      </trkpt>
      <trkpt lat="48.50349" lon="2.45867">
        <ele>148.29</ele>
        <time>2023-10-29T12:40:37.001Z</time>
      </trkpt>
      <trkpt lat="48.50349" lon="2.45896">
        <ele>147.86</ele>
        <time>2023-10-29T12:41:09.001Z</time>
      </trkpt>
      <trkpt lat="48.50348" lon="2.45923">
        <ele>149.79</ele>
        <time>2023-10-29T12:41:21.001Z</time>
      </trkpt>
      <trkpt lat="48.50347" lon="2.45952">
        <ele>152.11</ele>
        <time>2023-10-29T12:41:37.001Z</time>
      </trkpt>
      <trkpt lat="48.50347" lon="2.4598">
        <ele>151.07</ele>
        <time>2023-10-29T12:41:51.001Z</time>
      </trkpt>
      <trkpt lat="48.50346" lon="2.46007">
        <ele>149.81</ele>
        <time>2023-10-29T12:42:09.001Z</time>
      </trkpt>
      <trkpt lat="48.50344" lon="2.46035">
        <ele>148.97</ele>
        <time>2023-10-29T12:42:29.001Z</time>
      </trkpt>
      <trkpt lat="48.50335" lon="2.4606">
        <ele>149.66</ele>
        <time>2023-10-29T12:42:43.001Z</time>
      </trkpt>
      <trkpt lat="48.50328" lon="2.46085">
        <ele>150.23</ele>
        <time>2023-10-29T12:43:00.001Z</time>
      </trkpt>
      <trkpt lat="48.50319" lon="2.46109">
        <ele>145.98</ele>
        <time>2023-10-29T12:43:23.001Z</time>
      </trkpt>
      <trkpt lat="48.50303" lon="2.46121">
        <ele>143</ele>
        <time>2023-10-29T12:43:40.001Z</time>
      </trkpt>
      <trkpt lat="48.50293" lon="2.46144">
        <ele>144.65</ele>
        <time>2023-10-29T12:44:00.001Z</time>
      </trkpt>
      <trkpt lat="48.50295" lon="2.46172">
        <ele>147.94</ele>
        <time>2023-10-29T12:44:41.001Z</time>
      </trkpt>
      <trkpt lat="48.50282" lon="2.46192">
        <ele>141.91</ele>
        <time>2023-10-29T12:46:03.001Z</time>
      </trkpt>
      <trkpt lat="48.50265" lon="2.46202">
        <ele>143.03</ele>
        <time>2023-10-29T12:47:18.001Z</time>
      </trkpt>
      <trkpt lat="48.50248" lon="2.46213">
        <ele>144.36</ele>
        <time>2023-10-29T12:47:43.001Z</time>
      </trkpt>
      <trkpt lat="48.50231" lon="2.46224">
        <ele>145</ele>
        <time>2023-10-29T12:47:59.001Z</time>
      </trkpt>
      <trkpt lat="48.50213" lon="2.46232">
        <ele>149.53</ele>
        <time>2023-10-29T12:48:23.001Z</time>
      </trkpt>
      <trkpt lat="48.50195" lon="2.46232">
        <ele>149.94</ele>
        <time>2023-10-29T12:48:51.001Z</time>
      </trkpt>
      <trkpt lat="48.50185" lon="2.46256">
        <ele>145.28</ele>
        <time>2023-10-29T12:51:48.001Z</time>
      </trkpt>
      <trkpt lat="48.50175" lon="2.46279">
        <ele>143.41</ele>
        <time>2023-10-29T12:52:06.001Z</time>
      </trkpt>
      <trkpt lat="48.50164" lon="2.46302">
        <ele>144.67</ele>
        <time>2023-10-29T12:52:24.001Z</time>
      </trkpt>
      <trkpt lat="48.50149" lon="2.46318">
        <ele>143.18</ele>
        <time>2023-10-29T12:53:12.001Z</time>
      </trkpt>
      <trkpt lat="48.50137" lon="2.46337">
        <ele>137.96</ele>
        <time>2023-10-29T12:53:40.001Z</time>
      </trkpt>
      <trkpt lat="48.50129" lon="2.46312">
        <ele>137.37</ele>
        <time>2023-10-29T12:54:15.001Z</time>
      </trkpt>
      <trkpt lat="48.50132" lon="2.46285">
        <ele>137.83</ele>
        <time>2023-10-29T12:54:38.001Z</time>
      </trkpt>
      <trkpt lat="48.50143" lon="2.46263">
        <ele>137.42</ele>
        <time>2023-10-29T12:55:02.000Z</time>
      </trkpt>
      <trkpt lat="48.50134" lon="2.46238">
        <ele>134.68</ele>
        <time>2023-10-29T12:57:58.001Z</time>
      </trkpt>
      <trkpt lat="48.50117" lon="2.46226">
        <ele>134.02</ele>
        <time>2023-10-29T12:58:12.001Z</time>
      </trkpt>
      <trkpt lat="48.50099" lon="2.46218">
        <ele>133.53</ele>
        <time>2023-10-29T12:58:56.001Z</time>
      </trkpt>
      <trkpt lat="48.50082" lon="2.46204">
        <ele>132.72</ele>
        <time>2023-10-29T12:59:11.001Z</time>
      </trkpt>
      <trkpt lat="48.50065" lon="2.46194">
        <ele>133.56</ele>
        <time>2023-10-29T12:59:24.001Z</time>
      </trkpt>
      <trkpt lat="48.50048" lon="2.46187">
        <ele>137.44</ele>
        <time>2023-10-29T12:59:42.001Z</time>
      </trkpt>
      <trkpt lat="48.50031" lon="2.46177">
        <ele>138.13</ele>
        <time>2023-10-29T12:59:59.001Z</time>
      </trkpt>
      <trkpt lat="48.50013" lon="2.4617">
        <ele>132.93</ele>
        <time>2023-10-29T13:00:21.001Z</time>
      </trkpt>
      <trkpt lat="48.49996" lon="2.46157">
        <ele>128.96</ele>
        <time>2023-10-29T13:00:42.001Z</time>
      </trkpt>
      <trkpt lat="48.49981" lon="2.46142">
        <ele>126.13</ele>
        <time>2023-10-29T13:00:53.001Z</time>
      </trkpt>
      <trkpt lat="48.49965" lon="2.4613">
        <ele>124.01</ele>
        <time>2023-10-29T13:02:20.001Z</time>
      </trkpt>
      <trkpt lat="48.49947" lon="2.46118">
        <ele>121.34</ele>
        <time>2023-10-29T13:03:19.001Z</time>
      </trkpt>
      <trkpt lat="48.49932" lon="2.46103">
        <ele>116.7</ele>
        <time>2023-10-29T13:05:43.001Z</time>
      </trkpt>
      <trkpt lat="48.49918" lon="2.46122">
        <ele>115.52</ele>
        <time>2023-10-29T13:06:01.001Z</time>
      </trkpt>
      <trkpt lat="48.49901" lon="2.46135">
        <ele>116.89</ele>
        <time>2023-10-29T13:07:17.001Z</time>
      </trkpt>
      <trkpt lat="48.49895" lon="2.46164">
        <ele>118.76</ele>
        <time>2023-10-29T13:07:30.001Z</time>
      </trkpt>
      <trkpt lat="48.49891" lon="2.46192">
        <ele>120.58</ele>
        <time>2023-10-29T13:07:44.001Z</time>
      </trkpt>
      <trkpt lat="48.49881" lon="2.46216">
        <ele>122.59</ele>
        <time>2023-10-29T13:07:56.001Z</time>
      </trkpt>
      <trkpt lat="48.49872" lon="2.46243">
        <ele>122.71</ele>
        <time>2023-10-29T13:08:14.001Z</time>
      </trkpt>
      <trkpt lat="48.49863" lon="2.46266">
        <ele>119.69</ele>
        <time>2023-10-29T13:08:26.001Z</time>
      </trkpt>
      <trkpt lat="48.49853" lon="2.46291">
        <ele>117.96</ele>
        <time>2023-10-29T13:08:44.001Z</time>
      </trkpt>
      <trkpt lat="48.49842" lon="2.46312">
        <ele>118.43</ele>
        <time>2023-10-29T13:08:57.001Z</time>
      </trkpt>
      <trkpt lat="48.49833" lon="2.46336">
        <ele>118.09</ele>
        <time>2023-10-29T13:09:10.001Z</time>
      </trkpt>
      <trkpt lat="48.49821" lon="2.46357">
        <ele>116.82</ele>
        <time>2023-10-29T13:09:25.001Z</time>
      </trkpt>
      <trkpt lat="48.49813" lon="2.46383">
        <ele>118.07</ele>
        <time>2023-10-29T13:09:39.001Z</time>
      </trkpt>
      <trkpt lat="48.49809" lon="2.4641">
        <ele>118.02</ele>
        <time>2023-10-29T13:09:54.001Z</time>
      </trkpt>
      <trkpt lat="48.49805" lon="2.46438">
        <ele>119.54</ele>
        <time>2023-10-29T13:10:07.001Z</time>
      </trkpt>
      <trkpt lat="48.49802" lon="2.46465">
        <ele>118.2</ele>
        <time>2023-10-29T13:10:20.001Z</time>
      </trkpt>
      <trkpt lat="48.49797" lon="2.46491">
        <ele>114.32</ele>
        <time>2023-10-29T13:10:34.001Z</time>
      </trkpt>
      <trkpt lat="48.4979" lon="2.46517">
        <ele>114.26</ele>
        <time>2023-10-29T13:10:53.001Z</time>
      </trkpt>
      <trkpt lat="48.49783" lon="2.46544">
        <ele>114.81</ele>
        <time>2023-10-29T13:11:09.001Z</time>
      </trkpt>
      <trkpt lat="48.49775" lon="2.4657">
        <ele>115.34</ele>
        <time>2023-10-29T13:11:24.001Z</time>
      </trkpt>
      <trkpt lat="48.49767" lon="2.46596">
        <ele>113.31</ele>
        <time>2023-10-29T13:11:38.001Z</time>
      </trkpt>
      <trkpt lat="48.49761" lon="2.46624">
        <ele>111.48</ele>
        <time>2023-10-29T13:11:52.001Z</time>
      </trkpt>
      <trkpt lat="48.49758" lon="2.46652">
        <ele>110.88</ele>
        <time>2023-10-29T13:12:07.001Z</time>
      </trkpt>
      <trkpt lat="48.49755" lon="2.46679">
        <ele>111.75</ele>
        <time>2023-10-29T13:12:20.001Z</time>
      </trkpt>
      <trkpt lat="48.4975" lon="2.46706">
        <ele>109.46</ele>
        <time>2023-10-29T13:12:34.001Z</time>
      </trkpt>
      <trkpt lat="48.49741" lon="2.46731">
        <ele>107.89</ele>
        <time>2023-10-29T13:12:50.001Z</time>
      </trkpt>
      <trkpt lat="48.49734" lon="2.46757">
        <ele>106.61</ele>
        <time>2023-10-29T13:13:07.001Z</time>
      </trkpt>
      <trkpt lat="48.49722" lon="2.4678">
        <ele>107.42</ele>
        <time>2023-10-29T13:13:26.001Z</time>
      </trkpt>
      <trkpt lat="48.49707" lon="2.46795">
        <ele>106.27</ele>
        <time>2023-10-29T13:13:42.001Z</time>
      </trkpt>
      <trkpt lat="48.49691" lon="2.4678">
        <ele>106.74</ele>
        <time>2023-10-29T13:14:02.000Z</time>
      </trkpt>
      <trkpt lat="48.4968" lon="2.46757">
        <ele>108.02</ele>
        <time>2023-10-29T13:14:21.001Z</time>
      </trkpt>
      <trkpt lat="48.49671" lon="2.46733">
        <ele>110.39</ele>
        <time>2023-10-29T13:14:42.001Z</time>
      </trkpt>
      <trkpt lat="48.49655" lon="2.46747">
        <ele>106.37</ele>
        <time>2023-10-29T13:15:20.001Z</time>
      </trkpt>
      <trkpt lat="48.49642" lon="2.46768">
        <ele>107.97</ele>
        <time>2023-10-29T13:15:38.001Z</time>
      </trkpt>
      <trkpt lat="48.49629" lon="2.46788">
        <ele>105.01</ele>
        <time>2023-10-29T13:16:29.001Z</time>
      </trkpt>
      <trkpt lat="48.49628" lon="2.46816">
        <ele>105.87</ele>
        <time>2023-10-29T13:16:52.001Z</time>
      </trkpt>
      <trkpt lat="48.49632" lon="2.46843">
        <ele>108.5</ele>
        <time>2023-10-29T13:17:10.001Z</time>
      </trkpt>
      <trkpt lat="48.49629" lon="2.4687">
        <ele>105.69</ele>
        <time>2023-10-29T13:19:14.001Z</time>
      </trkpt>
      <trkpt lat="48.49641" lon="2.46891">
        <ele>103.11</ele>
        <time>2023-10-29T13:19:56.001Z</time>
      </trkpt>
      <trkpt lat="48.49649" lon="2.46915">
        <ele>99.7</ele>
        <time>2023-10-29T13:20:15.001Z</time>
      </trkpt>
      <trkpt lat="48.49666" lon="2.46928">
        <ele>101.16</ele>
        <time>2023-10-29T13:20:32.001Z</time>
      </trkpt>
      <trkpt lat="48.49679" lon="2.46948">
        <ele>97.64</ele>
        <time>2023-10-29T13:20:58.001Z</time>
      </trkpt>
      <trkpt lat="48.49696" lon="2.46955">
        <ele>94.41</ele>
        <time>2023-10-29T13:21:18.001Z</time>
      </trkpt>
      <trkpt lat="48.49713" lon="2.46944">
        <ele>95.3</ele>
        <time>2023-10-29T13:22:25.001Z</time>
      </trkpt>
      <trkpt lat="48.49731" lon="2.46944">
        <ele>98.16</ele>
        <time>2023-10-29T13:22:53.001Z</time>
      </trkpt>
      <trkpt lat="48.4975" lon="2.46946">
        <ele>95.57</ele>
        <time>2023-10-29T13:23:13.001Z</time>
      </trkpt>
      <trkpt lat="48.4977" lon="2.4695">
        <ele>93.46</ele>
        <time>2023-10-29T13:23:23.001Z</time>
      </trkpt>
      <trkpt lat="48.49775" lon="2.4695">
        <ele>95.8</ele>
      </trkpt>
      <trkpt lat="48.49775" lon="2.46949">
        <ele>95.8</ele>
      </trkpt>
      <trkpt lat="48.49778" lon="2.46949">
        <ele>95.8</ele>
      </trkpt>
      <trkpt lat="48.49779" lon="2.46962">
        <ele>95.4</ele>
      </trkpt>
      <trkpt lat="48.49781" lon="2.46975">
        <ele>95</ele>
      </trkpt>
      <trkpt lat="48.49782" lon="2.46989">
        <ele>94.5</ele>
      </trkpt>
      <trkpt lat="48.49783" lon="2.46999">
        <ele>94.2</ele>
      </trkpt>
      <trkpt lat="48.49787" lon="2.47013">
        <ele>94.2</ele>
      </trkpt>
      <trkpt lat="48.49792" lon="2.47023">
        <ele>94.1</ele>
      </trkpt>
      <trkpt lat="48.49802" lon="2.47038">
        <ele>94</ele>
      </trkpt>
      <trkpt lat="48.4981" lon="2.47047">
        <ele>94.2</ele>
      </trkpt>
      <trkpt lat="48.49841" lon="2.47086">
        <ele>94.5</ele>
      </trkpt>
      <trkpt lat="48.49858" lon="2.47109">
        <ele>95</ele>
      </trkpt>
      <trkpt lat="48.49863" lon="2.47119">
        <ele>95.4</ele>
      </trkpt>
      <trkpt lat="48.49869" lon="2.47128">
        <ele>96</ele>
      </trkpt>
      <trkpt lat="48.49872" lon="2.47134">
        <ele>96.3</ele>
      </trkpt>
      <trkpt lat="48.49871" lon="2.47134">
        <ele>96.2</ele>
      </trkpt>
      <trkpt lat="48.49869" lon="2.47128">
        <ele>96</ele>
      </trkpt>
      <trkpt lat="48.49863" lon="2.47119">
        <ele>95.4</ele>
      </trkpt>
      <trkpt lat="48.49872" lon="2.47124">
        <ele>96.1</ele>
      </trkpt>
      <trkpt lat="48.49888" lon="2.47136">
        <ele>97</ele>
      </trkpt>
      <trkpt lat="48.49927" lon="2.47166">
        <ele>100.1</ele>
      </trkpt>
      <trkpt lat="48.49947" lon="2.47178">
        <ele>101.8</ele>
      </trkpt>
      <trkpt lat="48.49957" lon="2.47179">
        <ele>102.7</ele>
      </trkpt>
      <trkpt lat="48.49972" lon="2.47171">
        <ele>104</ele>
      </trkpt>
      <trkpt lat="48.50015" lon="2.4716">
        <ele>109.3</ele>
      </trkpt>
      <trkpt lat="48.50007" lon="2.47175">
        <ele>108.3</ele>
      </trkpt>
      <trkpt lat="48.5" lon="2.47181">
        <ele>107.5</ele>
      </trkpt>
      <trkpt lat="48.5" lon="2.47181">
        <ele>107.5</ele>
      </trkpt>
      <trkpt lat="48.50007" lon="2.47175">
        <ele>108.3</ele>
      </trkpt>
      <trkpt lat="48.50015" lon="2.4716">
        <ele>109.3</ele>
      </trkpt>
      <trkpt lat="48.50016" lon="2.47142">
        <ele>110</ele>
      </trkpt>
      <trkpt lat="48.50014" lon="2.47128">
        <ele>110.6</ele>
      </trkpt>
      <trkpt lat="48.50007" lon="2.47102">
        <ele>111.4</ele>
      </trkpt>
      <trkpt lat="48.50003" lon="2.47086">
        <ele>111.3</ele>
      </trkpt>
      <trkpt lat="48.50003" lon="2.47075">
        <ele>111.6</ele>
      </trkpt>
      <trkpt lat="48.50006" lon="2.47069">
        <ele>112.2</ele>
      </trkpt>
      <trkpt lat="48.50014" lon="2.47038">
        <ele>112.9</ele>
      </trkpt>
      <trkpt lat="48.50029" lon="2.46995">
        <ele>112.8</ele>
      </trkpt>
      <trkpt lat="48.50031" lon="2.46992">
        <ele>112.7</ele>
      </trkpt>
      <trkpt lat="48.50039" lon="2.46976">
        <ele>112.1</ele>
      </trkpt>
      <trkpt lat="48.50047" lon="2.46968">
        <ele>112.1</ele>
      </trkpt>
      <trkpt lat="48.50067" lon="2.46961">
        <ele>112.8</ele>
      </trkpt>
      <trkpt lat="48.50064" lon="2.46983">
        <ele>114.9</ele>
      </trkpt>
      <trkpt lat="48.50065" lon="2.46988">
        <ele>115.6</ele>
      </trkpt>
      <trkpt lat="48.50074" lon="2.46998">
        <ele>117.7</ele>
      </trkpt>
      <trkpt lat="48.50079" lon="2.47005">
        <ele>119</ele>
      </trkpt>
      <trkpt lat="48.50084" lon="2.47012">
        <ele>120.3</ele>
      </trkpt>
      <trkpt lat="48.50086" lon="2.47016">
        <ele>120.7</ele>
      </trkpt>
      <trkpt lat="48.50085" lon="2.47023">
        <ele>121.4</ele>
      </trkpt>
      <trkpt lat="48.50085" lon="2.47028">
        <ele>121.9</ele>
      </trkpt>
      <trkpt lat="48.50087" lon="2.47032">
        <ele>122</ele>
      </trkpt>
      <trkpt lat="48.501" lon="2.47056">
        <ele>123</ele>
      </trkpt>
      <trkpt lat="48.50119" lon="2.47104">
        <ele>126.2</ele>
      </trkpt>
      <trkpt lat="48.50135" lon="2.47122">
        <ele>127.3</ele>
      </trkpt>
      <trkpt lat="48.50135" lon="2.47122">
        <ele>127.3</ele>
      </trkpt>
      <trkpt lat="48.50135" lon="2.47123">
        <ele>127.3</ele>
      </trkpt>
      <trkpt lat="48.50136" lon="2.47126">
        <ele>127.3</ele>
      </trkpt>
      <trkpt lat="48.50136" lon="2.47132">
        <ele>127</ele>
      </trkpt>
      <trkpt lat="48.50137" lon="2.47134">
        <ele>127</ele>
      </trkpt>
      <trkpt lat="48.50137" lon="2.47139">
        <ele>126.9</ele>
      </trkpt>
      <trkpt lat="48.50136" lon="2.47142">
        <ele>126.6</ele>
      </trkpt>
      <trkpt lat="48.50136" lon="2.47146">
        <ele>126.3</ele>
      </trkpt>
      <trkpt lat="48.50135" lon="2.47148">
        <ele>126</ele>
      </trkpt>
      <trkpt lat="48.50136" lon="2.47152">
        <ele>125.8</ele>
      </trkpt>
      <trkpt lat="48.50134" lon="2.47155">
        <ele>125.4</ele>
      </trkpt>
      <trkpt lat="48.50132" lon="2.47157">
        <ele>125</ele>
      </trkpt>
      <trkpt lat="48.50128" lon="2.47156">
        <ele>124.7</ele>
      </trkpt>
      <trkpt lat="48.50127" lon="2.47159">
        <ele>124.4</ele>
      </trkpt>
      <trkpt lat="48.50124" lon="2.47163">
        <ele>123.7</ele>
      </trkpt>
      <trkpt lat="48.50124" lon="2.47168">
        <ele>123.3</ele>
      </trkpt>
      <trkpt lat="48.50123" lon="2.47172">
        <ele>123</ele>
      </trkpt>
      <trkpt lat="48.50123" lon="2.47181">
        <ele>122.5</ele>
      </trkpt>
      <trkpt lat="48.50123" lon="2.47187">
        <ele>122.2</ele>
      </trkpt>
      <trkpt lat="48.50124" lon="2.4719">
        <ele>122.2</ele>
      </trkpt>
      <trkpt lat="48.50124" lon="2.47193">
        <ele>122</ele>
      </trkpt>
      <trkpt lat="48.50124" lon="2.472">
        <ele>122.1</ele>
      </trkpt>
      <trkpt lat="48.50124" lon="2.47206">
        <ele>122.3</ele>
      </trkpt>
      <trkpt lat="48.50121" lon="2.47214">
        <ele>122.4</ele>
      </trkpt>
      <trkpt lat="48.50121" lon="2.47219">
        <ele>122.6</ele>
      </trkpt>
      <trkpt lat="48.50118" lon="2.47224">
        <ele>122.6</ele>
      </trkpt>
      <trkpt lat="48.50122" lon="2.47228">
        <ele>123.2</ele>
      </trkpt>
      <trkpt lat="48.50124" lon="2.47232">
        <ele>123.6</ele>
      </trkpt>
      <trkpt lat="48.50124" lon="2.47235">
        <ele>123.8</ele>
      </trkpt>
      <trkpt lat="48.50124" lon="2.4724">
        <ele>124.2</ele>
      </trkpt>
      <trkpt lat="48.50127" lon="2.47244">
        <ele>124.7</ele>
      </trkpt>
      <trkpt lat="48.50129" lon="2.47251">
        <ele>125.3</ele>
      </trkpt>
      <trkpt lat="48.5013" lon="2.47257">
        <ele>125.4</ele>
      </trkpt>
      <trkpt lat="48.50127" lon="2.4726">
        <ele>125.1</ele>
      </trkpt>
      <trkpt lat="48.50126" lon="2.47266">
        <ele>125.1</ele>
      </trkpt>
      <trkpt lat="48.50126" lon="2.4727">
        <ele>125.1</ele>
      </trkpt>
      <trkpt lat="48.50127" lon="2.47275">
        <ele>125.1</ele>
      </trkpt>
      <trkpt lat="48.50125" lon="2.47278">
        <ele>125</ele>
      </trkpt>
      <trkpt lat="48.50125" lon="2.47284">
        <ele>124.7</ele>
      </trkpt>
      <trkpt lat="48.50129" lon="2.47287">
        <ele>124.9</ele>
      </trkpt>
      <trkpt lat="48.5013" lon="2.47289">
        <ele>125</ele>
      </trkpt>
      <trkpt lat="48.50132" lon="2.47295">
        <ele>125</ele>
      </trkpt>
      <trkpt lat="48.50135" lon="2.47295">
        <ele>125.5</ele>
      </trkpt>
      <trkpt lat="48.50135" lon="2.47302">
        <ele>125.4</ele>
      </trkpt>
      <trkpt lat="48.50134" lon="2.47302">
        <ele>125.2</ele>
      </trkpt>
      <trkpt lat="48.50134" lon="2.47304">
        <ele>125.1</ele>
      </trkpt>
      <trkpt lat="48.50134" lon="2.47307">
        <ele>125.2</ele>
      </trkpt>
      <trkpt lat="48.50138" lon="2.47311">
        <ele>126.2</ele>
      </trkpt>
      <trkpt lat="48.50143" lon="2.47311">
        <ele>126.1</ele>
      </trkpt>
      <trkpt lat="48.50145" lon="2.47313">
        <ele>126.1</ele>
      </trkpt>
      <trkpt lat="48.50143" lon="2.47317">
        <ele>126.5</ele>
      </trkpt>
      <trkpt lat="48.50143" lon="2.47322">
        <ele>126.9</ele>
      </trkpt>
      <trkpt lat="48.50141" lon="2.47327">
        <ele>127.4</ele>
      </trkpt>
      <trkpt lat="48.5014" lon="2.47331">
        <ele>127.8</ele>
      </trkpt>
      <trkpt lat="48.50143" lon="2.47336">
        <ele>128</ele>
      </trkpt>
      <trkpt lat="48.50142" lon="2.47338">
        <ele>128.3</ele>
      </trkpt>
      <trkpt lat="48.50143" lon="2.47339">
        <ele>128.3</ele>
      </trkpt>
      <trkpt lat="48.50143" lon="2.47343">
        <ele>128.7</ele>
      </trkpt>
      <trkpt lat="48.50142" lon="2.47352">
        <ele>129.7</ele>
      </trkpt>
      <trkpt lat="48.50141" lon="2.47357">
        <ele>130.3</ele>
      </trkpt>
      <trkpt lat="48.5014" lon="2.47363">
        <ele>130.9</ele>
      </trkpt>
      <trkpt lat="48.50142" lon="2.47367">
        <ele>130.9</ele>
      </trkpt>
      <trkpt lat="48.50142" lon="2.47375">
        <ele>131.1</ele>
      </trkpt>
      <trkpt lat="48.50143" lon="2.47384">
        <ele>131.3</ele>
      </trkpt>
      <trkpt lat="48.50144" lon="2.47394">
        <ele>130.9</ele>
      </trkpt>
      <trkpt lat="48.50147" lon="2.47401">
        <ele>130.1</ele>
      </trkpt>
      <trkpt lat="48.50148" lon="2.47402">
        <ele>129.9</ele>
      </trkpt>
      <trkpt lat="48.50151" lon="2.47407">
        <ele>129.2</ele>
      </trkpt>
      <trkpt lat="48.50151" lon="2.47411">
        <ele>129</ele>
      </trkpt>
      <trkpt lat="48.5015" lon="2.47417">
        <ele>128.8</ele>
      </trkpt>
      <trkpt lat="48.50147" lon="2.4742">
        <ele>128.9</ele>
      </trkpt>
      <trkpt lat="48.50145" lon="2.47423">
        <ele>128.9</ele>
      </trkpt>
      <trkpt lat="48.50144" lon="2.47424">
        <ele>128.9</ele>
      </trkpt>
      <trkpt lat="48.50145" lon="2.47426">
        <ele>128.7</ele>
      </trkpt>
      <trkpt lat="48.50145" lon="2.47426">
        <ele>128.7</ele>
      </trkpt>
      <trkpt lat="48.50145" lon="2.47426">
        <ele>128.7</ele>
      </trkpt>
      <trkpt lat="48.50145" lon="2.47427">
        <ele>128.6</ele>
      </trkpt>
      <trkpt lat="48.50144" lon="2.47433">
        <ele>128.3</ele>
      </trkpt>
      <trkpt lat="48.50142" lon="2.47437">
        <ele>128.2</ele>
      </trkpt>
      <trkpt lat="48.5014" lon="2.47445">
        <ele>127.9</ele>
      </trkpt>
      <trkpt lat="48.50142" lon="2.4745">
        <ele>128</ele>
      </trkpt>
      <trkpt lat="48.50143" lon="2.47452">
        <ele>128</ele>
      </trkpt>
      <trkpt lat="48.50146" lon="2.4746">
        <ele>128.1</ele>
      </trkpt>
      <trkpt lat="48.50146" lon="2.4747">
        <ele>128.6</ele>
      </trkpt>
      <trkpt lat="48.50146" lon="2.47476">
        <ele>128.7</ele>
      </trkpt>
      <trkpt lat="48.50146" lon="2.4748">
        <ele>128.6</ele>
      </trkpt>
      <trkpt lat="48.50146" lon="2.47485">
        <ele>128.5</ele>
      </trkpt>
      <trkpt lat="48.50146" lon="2.47488">
        <ele>128.4</ele>
      </trkpt>
      <trkpt lat="48.50143" lon="2.47497">
        <ele>129</ele>
      </trkpt>
      <trkpt lat="48.50141" lon="2.47502">
        <ele>129.2</ele>
      </trkpt>
      <trkpt lat="48.50138" lon="2.47502">
        <ele>129.7</ele>
      </trkpt>
      <trkpt lat="48.50136" lon="2.475">
        <ele>129.9</ele>
      </trkpt>
      <trkpt lat="48.50136" lon="2.47506">
        <ele>129.1</ele>
      </trkpt>
      <trkpt lat="48.50132" lon="2.47508">
        <ele>128.8</ele>
      </trkpt>
      <trkpt lat="48.50132" lon="2.47512">
        <ele>128.3</ele>
      </trkpt>
      <trkpt lat="48.5013" lon="2.47515">
        <ele>128</ele>
      </trkpt>
      <trkpt lat="48.50127" lon="2.47517">
        <ele>127.9</ele>
      </trkpt>
      <trkpt lat="48.50128" lon="2.47523">
        <ele>127.3</ele>
      </trkpt>
      <trkpt lat="48.50129" lon="2.47526">
        <ele>126.9</ele>
      </trkpt>
      <trkpt lat="48.50128" lon="2.4753">
        <ele>126.4</ele>
      </trkpt>
      <trkpt lat="48.50125" lon="2.47533">
        <ele>126.2</ele>
      </trkpt>
      <trkpt lat="48.50125" lon="2.4754">
        <ele>125</ele>
      </trkpt>
      <trkpt lat="48.50125" lon="2.47542">
        <ele>124.7</ele>
      </trkpt>
      <trkpt lat="48.50118" lon="2.47539">
        <ele>125.8</ele>
      </trkpt>
      <trkpt lat="48.50111" lon="2.47533">
        <ele>127.2</ele>
      </trkpt>
      <trkpt lat="48.50107" lon="2.47532">
        <ele>127.3</ele>
      </trkpt>
      <trkpt lat="48.50104" lon="2.47532">
        <ele>127.3</ele>
      </trkpt>
      <trkpt lat="48.50101" lon="2.47537">
        <ele>126.7</ele>
      </trkpt>
      <trkpt lat="48.50087" lon="2.47579">
        <ele>121.5</ele>
      </trkpt>
      <trkpt lat="48.5008" lon="2.47595">
        <ele>118.8</ele>
      </trkpt>
      <trkpt lat="48.50074" lon="2.47602">
        <ele>117.4</ele>
      </trkpt>
      <trkpt lat="48.50069" lon="2.47604">
        <ele>117</ele>
      </trkpt>
      <trkpt lat="48.50053" lon="2.47612">
        <ele>115.5</ele>
      </trkpt>
      <trkpt lat="48.50039" lon="2.47624">
        <ele>112.1</ele>
      </trkpt>
      <trkpt lat="48.50028" lon="2.47644">
        <ele>108.7</ele>
      </trkpt>
      <trkpt lat="48.50016" lon="2.47668">
        <ele>104.5</ele>
      </trkpt>
      <trkpt lat="48.50015" lon="2.47675">
        <ele>104.2</ele>
      </trkpt>
      <trkpt lat="48.50015" lon="2.47681">
        <ele>104.2</ele>
      </trkpt>
      <trkpt lat="48.50016" lon="2.47687">
        <ele>104.5</ele>
      </trkpt>
      <trkpt lat="48.50008" lon="2.47692">
        <ele>102.7</ele>
      </trkpt>
      <trkpt lat="48.50016" lon="2.47687">
        <ele>104.5</ele>
      </trkpt>
      <trkpt lat="48.50021" lon="2.47689">
        <ele>105.5</ele>
      </trkpt>
      <trkpt lat="48.50045" lon="2.47696">
        <ele>108.8</ele>
      </trkpt>
      <trkpt lat="48.50055" lon="2.47702">
        <ele>109.7</ele>
      </trkpt>
      <trkpt lat="48.50076" lon="2.47722">
        <ele>103.9</ele>
      </trkpt>
      <trkpt lat="48.50086" lon="2.47736">
        <ele>100.1</ele>
      </trkpt>
      <trkpt lat="48.50092" lon="2.47743">
        <ele>98.4</ele>
      </trkpt>
      <trkpt lat="48.501" lon="2.47746">
        <ele>96.9</ele>
      </trkpt>
      <trkpt lat="48.50108" lon="2.47748">
        <ele>95.6</ele>
      </trkpt>
      <trkpt lat="48.50123" lon="2.47712">
        <ele>97.7</ele>
      </trkpt>
      <trkpt lat="48.50123" lon="2.47706">
        <ele>98.2</ele>
      </trkpt>
      <trkpt lat="48.50122" lon="2.47681">
        <ele>100.5</ele>
      </trkpt>
      <trkpt lat="48.50122" lon="2.47679">
        <ele>100.7</ele>
      </trkpt>
      <trkpt lat="48.50123" lon="2.47676">
        <ele>101</ele>
      </trkpt>
      <trkpt lat="48.50123" lon="2.47666">
        <ele>102.1</ele>
      </trkpt>
      <trkpt lat="48.50141" lon="2.47654">
        <ele>103.9</ele>
      </trkpt>
      <trkpt lat="48.50151" lon="2.47659">
        <ele>103.6</ele>
      </trkpt>
      <trkpt lat="48.50162" lon="2.47665">
        <ele>103.8</ele>
      </trkpt>
      <trkpt lat="48.50176" lon="2.47662">
        <ele>104.7</ele>
      </trkpt>
      <trkpt lat="48.50199" lon="2.47659">
        <ele>105.9</ele>
      </trkpt>
      <trkpt lat="48.50197" lon="2.47638">
        <ele>105.1</ele>
      </trkpt>
      <trkpt lat="48.50193" lon="2.47617">
        <ele>105.9</ele>
      </trkpt>
      <trkpt lat="48.50192" lon="2.4761">
        <ele>106.2</ele>
      </trkpt>
      <trkpt lat="48.50192" lon="2.4761">
        <ele>106.2</ele>
      </trkpt>
      <trkpt lat="48.50192" lon="2.4761">
        <ele>106.2</ele>
      </trkpt>
      <trkpt lat="48.50189" lon="2.47588">
        <ele>107.6</ele>
      </trkpt>
      <trkpt lat="48.50194" lon="2.4759">
        <ele>106.8</ele>
      </trkpt>
      <trkpt lat="48.50195" lon="2.47592">
        <ele>106.7</ele>
      </trkpt>
      <trkpt lat="48.50202" lon="2.47599">
        <ele>106.2</ele>
      </trkpt>
      <trkpt lat="48.50203" lon="2.47604">
        <ele>105.9</ele>
      </trkpt>
      <trkpt lat="48.50209" lon="2.47611">
        <ele>105.5</ele>
      </trkpt>
      <trkpt lat="48.50211" lon="2.47613">
        <ele>105.4</ele>
      </trkpt>
      <trkpt lat="48.50218" lon="2.47605">
        <ele>105.4</ele>
      </trkpt>
      <trkpt lat="48.50223" lon="2.47604">
        <ele>105.2</ele>
      </trkpt>
      <trkpt lat="48.50228" lon="2.47599">
        <ele>105.1</ele>
      </trkpt>
      <trkpt lat="48.50231" lon="2.47606">
        <ele>104.8</ele>
      </trkpt>
      <trkpt lat="48.50236" lon="2.47601">
        <ele>104.7</ele>
      </trkpt>
      <trkpt lat="48.5024" lon="2.47598">
        <ele>104.5</ele>
      </trkpt>
      <trkpt lat="48.50246" lon="2.47599">
        <ele>104.2</ele>
      </trkpt>
      <trkpt lat="48.50251" lon="2.476">
        <ele>103.8</ele>
      </trkpt>
      <trkpt lat="48.50258" lon="2.47603">
        <ele>102.6</ele>
      </trkpt>
      <trkpt lat="48.50257" lon="2.47612">
        <ele>102.7</ele>
      </trkpt>
      <trkpt lat="48.50262" lon="2.47611">
        <ele>101.8</ele>
      </trkpt>
      <trkpt lat="48.50267" lon="2.47607">
        <ele>101</ele>
      </trkpt>
      <trkpt lat="48.50272" lon="2.47606">
        <ele>100.2</ele>
      </trkpt>
      <trkpt lat="48.50273" lon="2.47617">
        <ele>99.5</ele>
      </trkpt>
      <trkpt lat="48.5028" lon="2.47618">
        <ele>98.2</ele>
      </trkpt>
      <trkpt lat="48.50279" lon="2.47625">
        <ele>97.8</ele>
      </trkpt>
      <trkpt lat="48.50283" lon="2.4763">
        <ele>96.9</ele>
      </trkpt>
      <trkpt lat="48.50288" lon="2.47626">
        <ele>96.6</ele>
      </trkpt>
      <trkpt lat="48.5029" lon="2.47632">
        <ele>95.8</ele>
      </trkpt>
      <trkpt lat="48.50296" lon="2.47638">
        <ele>94.5</ele>
      </trkpt>
      <trkpt lat="48.50294" lon="2.4765">
        <ele>93.3</ele>
      </trkpt>
      <trkpt lat="48.50299" lon="2.47654">
        <ele>92.2</ele>
      </trkpt>
      <trkpt lat="48.50298" lon="2.47665">
        <ele>91</ele>
      </trkpt>
      <trkpt lat="48.50303" lon="2.47667">
        <ele>90.3</ele>
      </trkpt>
      <trkpt lat="48.5031" lon="2.47675">
        <ele>89.2</ele>
      </trkpt>
      <trkpt lat="48.50313" lon="2.47682">
        <ele>88.5</ele>
      </trkpt>
      <trkpt lat="48.50312" lon="2.47689">
        <ele>88</ele>
      </trkpt>
      <trkpt lat="48.50315" lon="2.47697">
        <ele>87.4</ele>
      </trkpt>
      <trkpt lat="48.50318" lon="2.47699">
        <ele>87.2</ele>
      </trkpt>
      <trkpt lat="48.5032" lon="2.47699">
        <ele>87</ele>
      </trkpt>
      <trkpt lat="48.50325" lon="2.47698">
        <ele>86.6</ele>
      </trkpt>
      <trkpt lat="48.50329" lon="2.47689">
        <ele>86.9</ele>
      </trkpt>
      <trkpt lat="48.50328" lon="2.47677">
        <ele>88.1</ele>
      </trkpt>
      <trkpt lat="48.50329" lon="2.47675">
        <ele>88.3</ele>
      </trkpt>
      <trkpt lat="48.50334" lon="2.47667">
        <ele>88.9</ele>
      </trkpt>
      <trkpt lat="48.50338" lon="2.47664">
        <ele>89</ele>
      </trkpt>
      <trkpt lat="48.50344" lon="2.47654">
        <ele>89.6</ele>
      </trkpt>
      <trkpt lat="48.50347" lon="2.47648">
        <ele>90</ele>
      </trkpt>
      <trkpt lat="48.50348" lon="2.47639">
        <ele>90.9</ele>
      </trkpt>
      <trkpt lat="48.50351" lon="2.47634">
        <ele>91.1</ele>
      </trkpt>
      <trkpt lat="48.50351" lon="2.47625">
        <ele>91.7</ele>
      </trkpt>
      <trkpt lat="48.50356" lon="2.4763">
        <ele>91</ele>
      </trkpt>
      <trkpt lat="48.5036" lon="2.47631">
        <ele>90.6</ele>
      </trkpt>
      <trkpt lat="48.50363" lon="2.4763">
        <ele>90.6</ele>
      </trkpt>
      <trkpt lat="48.50363" lon="2.47628">
        <ele>90.8</ele>
      </trkpt>
      <trkpt lat="48.50367" lon="2.47619">
        <ele>91.4</ele>
      </trkpt>
      <trkpt lat="48.50366" lon="2.47614">
        <ele>91.8</ele>
      </trkpt>
      <trkpt lat="48.50364" lon="2.47606">
        <ele>92.5</ele>
      </trkpt>
      <trkpt lat="48.50364" lon="2.47598">
        <ele>93.3</ele>
      </trkpt>
      <trkpt lat="48.50367" lon="2.47592">
        <ele>93.8</ele>
      </trkpt>
      <trkpt lat="48.50369" lon="2.47588">
        <ele>94</ele>
      </trkpt>
      <trkpt lat="48.50372" lon="2.47581">
        <ele>94.3</ele>
      </trkpt>
      <trkpt lat="48.50371" lon="2.47576">
        <ele>94.6</ele>
      </trkpt>
      <trkpt lat="48.50368" lon="2.4757">
        <ele>95.2</ele>
      </trkpt>
      <trkpt lat="48.50364" lon="2.47565">
        <ele>96</ele>
      </trkpt>
      <trkpt lat="48.50359" lon="2.47563">
        <ele>96.6</ele>
      </trkpt>
      <trkpt lat="48.50359" lon="2.47558">
        <ele>97</ele>
      </trkpt>
      <trkpt lat="48.50363" lon="2.47552">
        <ele>96.7</ele>
      </trkpt>
      <trkpt lat="48.50366" lon="2.47546">
        <ele>96.2</ele>
      </trkpt>
      <trkpt lat="48.50367" lon="2.47537">
        <ele>96</ele>
      </trkpt>
      <trkpt lat="48.50363" lon="2.47534">
        <ele>96.7</ele>
      </trkpt>
      <trkpt lat="48.50362" lon="2.47527">
        <ele>96.9</ele>
      </trkpt>
      <trkpt lat="48.50359" lon="2.47523">
        <ele>97.6</ele>
      </trkpt>
      <trkpt lat="48.50357" lon="2.47524">
        <ele>97.8</ele>
      </trkpt>
      <trkpt lat="48.50353" lon="2.47524">
        <ele>98.4</ele>
      </trkpt>
      <trkpt lat="48.5035" lon="2.47526">
        <ele>98.7</ele>
      </trkpt>
      <trkpt lat="48.50346" lon="2.47523">
        <ele>99.4</ele>
      </trkpt>
      <trkpt lat="48.50346" lon="2.47523">
        <ele>99.4</ele>
      </trkpt>
      <trkpt lat="48.50344" lon="2.4752">
        <ele>99.9</ele>
      </trkpt>
      <trkpt lat="48.50344" lon="2.47518">
        <ele>100</ele>
      </trkpt>
      <trkpt lat="48.50342" lon="2.47516">
        <ele>100.3</ele>
      </trkpt>
      <trkpt lat="48.5034" lon="2.47516">
        <ele>100.6</ele>
      </trkpt>
      <trkpt lat="48.50339" lon="2.47513">
        <ele>100.8</ele>
      </trkpt>
      <trkpt lat="48.50337" lon="2.47507">
        <ele>101.3</ele>
      </trkpt>
      <trkpt lat="48.50339" lon="2.47498">
        <ele>101.5</ele>
      </trkpt>
      <trkpt lat="48.50335" lon="2.47493">
        <ele>102.3</ele>
      </trkpt>
      <trkpt lat="48.50335" lon="2.4749">
        <ele>102.6</ele>
      </trkpt>
      <trkpt lat="48.50333" lon="2.47487">
        <ele>102.9</ele>
      </trkpt>
      <trkpt lat="48.50328" lon="2.47478">
        <ele>103.6</ele>
      </trkpt>
      <trkpt lat="48.50328" lon="2.47475">
        <ele>103.8</ele>
      </trkpt>
      <trkpt lat="48.50324" lon="2.4747">
        <ele>104.2</ele>
      </trkpt>
      <trkpt lat="48.50321" lon="2.47467">
        <ele>104.5</ele>
      </trkpt>
      <trkpt lat="48.5032" lon="2.47465">
        <ele>104.6</ele>
      </trkpt>
      <trkpt lat="48.5032" lon="2.47465">
        <ele>104.6</ele>
      </trkpt>
      <trkpt lat="48.5032" lon="2.47466">
        <ele>104.6</ele>
      </trkpt>
      <trkpt lat="48.5032" lon="2.47465">
        <ele>104.6</ele>
      </trkpt>
      <trkpt lat="48.50318" lon="2.47462">
        <ele>104.9</ele>
      </trkpt>
      <trkpt lat="48.50316" lon="2.47456">
        <ele>105.5</ele>
      </trkpt>
      <trkpt lat="48.50313" lon="2.4745">
        <ele>106.2</ele>
      </trkpt>
      <trkpt lat="48.50309" lon="2.47445">
        <ele>106.8</ele>
      </trkpt>
      <trkpt lat="48.50304" lon="2.47445">
        <ele>107.1</ele>
      </trkpt>
      <trkpt lat="48.50304" lon="2.47441">
        <ele>107.7</ele>
      </trkpt>
      <trkpt lat="48.50301" lon="2.47433">
        <ele>109.1</ele>
      </trkpt>
      <trkpt lat="48.50295" lon="2.47437">
        <ele>109.2</ele>
      </trkpt>
      <trkpt lat="48.50292" lon="2.47433">
        <ele>110.1</ele>
      </trkpt>
      <trkpt lat="48.50291" lon="2.47428">
        <ele>110.9</ele>
      </trkpt>
      <trkpt lat="48.50293" lon="2.47425">
        <ele>111.2</ele>
      </trkpt>
      <trkpt lat="48.50291" lon="2.47425">
        <ele>111.4</ele>
      </trkpt>
      <trkpt lat="48.50289" lon="2.47424">
        <ele>111.7</ele>
      </trkpt>
      <trkpt lat="48.50287" lon="2.47422">
        <ele>112.2</ele>
      </trkpt>
      <trkpt lat="48.50284" lon="2.47419">
        <ele>113</ele>
      </trkpt>
      <trkpt lat="48.50283" lon="2.47415">
        <ele>113.6</ele>
      </trkpt>
      <trkpt lat="48.50283" lon="2.47409">
        <ele>114.3</ele>
      </trkpt>
      <trkpt lat="48.50284" lon="2.47403">
        <ele>114.9</ele>
      </trkpt>
      <trkpt lat="48.50287" lon="2.47402">
        <ele>114.8</ele>
      </trkpt>
      <trkpt lat="48.50287" lon="2.47395">
        <ele>115.6</ele>
      </trkpt>
      <trkpt lat="48.50287" lon="2.47389">
        <ele>116.3</ele>
      </trkpt>
      <trkpt lat="48.50288" lon="2.47381">
        <ele>116.8</ele>
      </trkpt>
      <trkpt lat="48.50288" lon="2.47372">
        <ele>117.5</ele>
      </trkpt>
      <trkpt lat="48.50289" lon="2.47363">
        <ele>118.1</ele>
      </trkpt>
      <trkpt lat="48.5029" lon="2.47356">
        <ele>117.9</ele>
      </trkpt>
      <trkpt lat="48.50288" lon="2.4735">
        <ele>117.8</ele>
      </trkpt>
      <trkpt lat="48.50286" lon="2.47342">
        <ele>117.4</ele>
      </trkpt>
      <trkpt lat="48.50286" lon="2.47335">
        <ele>117.1</ele>
      </trkpt>
      <trkpt lat="48.50284" lon="2.4733">
        <ele>116.8</ele>
      </trkpt>
      <trkpt lat="48.50284" lon="2.47323">
        <ele>116.3</ele>
      </trkpt>
      <trkpt lat="48.50286" lon="2.47316">
        <ele>115.8</ele>
      </trkpt>
      <trkpt lat="48.50282" lon="2.47312">
        <ele>115.5</ele>
      </trkpt>
      <trkpt lat="48.50284" lon="2.47308">
        <ele>115.2</ele>
      </trkpt>
      <trkpt lat="48.50284" lon="2.47306">
        <ele>115</ele>
      </trkpt>
      <trkpt lat="48.50285" lon="2.47302">
        <ele>114.7</ele>
      </trkpt>
      <trkpt lat="48.50286" lon="2.47297">
        <ele>114.4</ele>
      </trkpt>
      <trkpt lat="48.50287" lon="2.47294">
        <ele>114.2</ele>
      </trkpt>
      <trkpt lat="48.5029" lon="2.47292">
        <ele>114</ele>
      </trkpt>
      <trkpt lat="48.50294" lon="2.47287">
        <ele>113.7</ele>
      </trkpt>
      <trkpt lat="48.50294" lon="2.47282">
        <ele>113.3</ele>
      </trkpt>
      <trkpt lat="48.50295" lon="2.47281">
        <ele>113.2</ele>
      </trkpt>
      <trkpt lat="48.50298" lon="2.47275">
        <ele>112.9</ele>
      </trkpt>
      <trkpt lat="48.50299" lon="2.47271">
        <ele>112.9</ele>
      </trkpt>
      <trkpt lat="48.503" lon="2.47273">
        <ele>112.9</ele>
      </trkpt>
      <trkpt lat="48.50307" lon="2.4727">
        <ele>112.8</ele>
      </trkpt>
      <trkpt lat="48.50313" lon="2.47268">
        <ele>112.2</ele>
      </trkpt>
      <trkpt lat="48.50317" lon="2.47263">
        <ele>111.8</ele>
      </trkpt>
      <trkpt lat="48.50321" lon="2.47262">
        <ele>111.3</ele>
      </trkpt>
      <trkpt lat="48.50323" lon="2.47259">
        <ele>111.1</ele>
      </trkpt>
      <trkpt lat="48.50327" lon="2.47257">
        <ele>110.7</ele>
      </trkpt>
      <trkpt lat="48.50327" lon="2.47251">
        <ele>110.7</ele>
      </trkpt>
      <trkpt lat="48.50327" lon="2.47242">
        <ele>110.9</ele>
      </trkpt>
      <trkpt lat="48.50333" lon="2.47235">
        <ele>110.6</ele>
      </trkpt>
      <trkpt lat="48.50336" lon="2.47231">
        <ele>110.3</ele>
      </trkpt>
      <trkpt lat="48.5034" lon="2.47227">
        <ele>109.9</ele>
      </trkpt>
      <trkpt lat="48.50343" lon="2.47224">
        <ele>109.6</ele>
      </trkpt>
      <trkpt lat="48.50347" lon="2.47219">
        <ele>109.3</ele>
      </trkpt>
      <trkpt lat="48.5035" lon="2.47217">
        <ele>109</ele>
      </trkpt>
      <trkpt lat="48.50354" lon="2.47213">
        <ele>108.7</ele>
      </trkpt>
      <trkpt lat="48.50357" lon="2.47213">
        <ele>108.3</ele>
      </trkpt>
      <trkpt lat="48.50361" lon="2.47219">
        <ele>107.2</ele>
      </trkpt>
      <trkpt lat="48.50367" lon="2.47221">
        <ele>106.7</ele>
      </trkpt>
      <trkpt lat="48.5037" lon="2.47219">
        <ele>106.7</ele>
      </trkpt>
      <trkpt lat="48.50377" lon="2.4722">
        <ele>106.1</ele>
      </trkpt>
      <trkpt lat="48.50382" lon="2.47219">
        <ele>105.9</ele>
      </trkpt>
      <trkpt lat="48.50387" lon="2.47216">
        <ele>106</ele>
      </trkpt>
      <trkpt lat="48.50388" lon="2.47218">
        <ele>105.7</ele>
      </trkpt>
      <trkpt lat="48.50392" lon="2.47224">
        <ele>104.7</ele>
      </trkpt>
      <trkpt lat="48.50398" lon="2.47223">
        <ele>104.3</ele>
      </trkpt>
      <trkpt lat="48.50401" lon="2.47228">
        <ele>103.6</ele>
      </trkpt>
      <trkpt lat="48.50409" lon="2.47232">
        <ele>102.4</ele>
      </trkpt>
      <trkpt lat="48.50412" lon="2.47233">
        <ele>102</ele>
      </trkpt>
      <trkpt lat="48.50416" lon="2.47238">
        <ele>100.8</ele>
      </trkpt>
      <trkpt lat="48.50422" lon="2.47247">
        <ele>98.5</ele>
      </trkpt>
      <trkpt lat="48.50425" lon="2.47246">
        <ele>98.1</ele>
      </trkpt>
      <trkpt lat="48.50428" lon="2.47251">
        <ele>96.9</ele>
      </trkpt>
      <trkpt lat="48.50433" lon="2.47251">
        <ele>96</ele>
      </trkpt>
      <trkpt lat="48.5044" lon="2.47246">
        <ele>95.5</ele>
      </trkpt>
      <trkpt lat="48.5044" lon="2.47246">
        <ele>95.5</ele>
      </trkpt>
      <trkpt lat="48.50441" lon="2.47246">
        <ele>95.3</ele>
      </trkpt>
      <trkpt lat="48.50445" lon="2.47246">
        <ele>94.7</ele>
      </trkpt>
      <trkpt lat="48.50451" lon="2.47243">
        <ele>94.6</ele>
      </trkpt>
      <trkpt lat="48.50456" lon="2.4724">
        <ele>94.5</ele>
      </trkpt>
      <trkpt lat="48.50459" lon="2.47235">
        <ele>94.8</ele>
      </trkpt>
      <trkpt lat="48.50462" lon="2.47235">
        <ele>94.4</ele>
      </trkpt>
      <trkpt lat="48.50467" lon="2.47229">
        <ele>94.3</ele>
      </trkpt>
      <trkpt lat="48.50464" lon="2.47214">
        <ele>96.8</ele>
      </trkpt>
      <trkpt lat="48.50452" lon="2.47198">
        <ele>102.4</ele>
      </trkpt>
      <trkpt lat="48.50448" lon="2.47186">
        <ele>105.3</ele>
      </trkpt>
      <trkpt lat="48.5045" lon="2.47173">
        <ele>106.7</ele>
      </trkpt>
      <trkpt lat="48.50454" lon="2.47164">
        <ele>106.6</ele>
      </trkpt>
      <trkpt lat="48.50462" lon="2.47155">
        <ele>104.8</ele>
      </trkpt>
      <trkpt lat="48.50471" lon="2.47152">
        <ele>102.8</ele>
      </trkpt>
      <trkpt lat="48.50479" lon="2.47147">
        <ele>101</ele>
      </trkpt>
      <trkpt lat="48.50484" lon="2.47137">
        <ele>100</ele>
      </trkpt>
      <trkpt lat="48.50488" lon="2.47117">
        <ele>98.8</ele>
      </trkpt>
      <trkpt lat="48.50487" lon="2.47093">
        <ele>98.6</ele>
      </trkpt>
      <trkpt lat="48.50489" lon="2.47076">
        <ele>98.3</ele>
      </trkpt>
      <trkpt lat="48.50489" lon="2.47056">
        <ele>98.8</ele>
      </trkpt>
      <trkpt lat="48.5049" lon="2.4703">
        <ele>100.9</ele>
      </trkpt>
      <trkpt lat="48.50489" lon="2.47006">
        <ele>102.3</ele>
      </trkpt>
      <trkpt lat="48.50485" lon="2.4698">
        <ele>103.9</ele>
      </trkpt>
      <trkpt lat="48.50475" lon="2.46949">
        <ele>104.8</ele>
      </trkpt>
      <trkpt lat="48.50468" lon="2.46919">
        <ele>103.5</ele>
      </trkpt>
      <trkpt lat="48.50463" lon="2.46916">
        <ele>103.6</ele>
      </trkpt>
      <trkpt lat="48.50458" lon="2.46917">
        <ele>104</ele>
      </trkpt>
      <trkpt lat="48.50456" lon="2.46917">
        <ele>104.2</ele>
      </trkpt>
      <trkpt lat="48.50454" lon="2.46913">
        <ele>104</ele>
      </trkpt>
      <trkpt lat="48.50445" lon="2.46909">
        <ele>104.1</ele>
      </trkpt>
      <trkpt lat="48.50441" lon="2.46907">
        <ele>104</ele>
      </trkpt>
      <trkpt lat="48.50434" lon="2.46905">
        <ele>103.9</ele>
      </trkpt>
      <trkpt lat="48.50429" lon="2.46906">
        <ele>104.1</ele>
      </trkpt>
      <trkpt lat="48.50429" lon="2.46907">
        <ele>104.1</ele>
      </trkpt>
      <trkpt lat="48.50434" lon="2.46905">
        <ele>103.9</ele>
      </trkpt>
      <trkpt lat="48.50429" lon="2.46848">
        <ele>100.3</ele>
      </trkpt>
      <trkpt lat="48.50432" lon="2.46789">
        <ele>97.3</ele>
      </trkpt>
      <trkpt lat="48.50421" lon="2.46751">
        <ele>95.9</ele>
      </trkpt>
      <trkpt lat="48.50419" lon="2.46741">
        <ele>95.6</ele>
      </trkpt>
      <trkpt lat="48.50423" lon="2.46739">
        <ele>95.4</ele>
      </trkpt>
      <trkpt lat="48.50422" lon="2.46733">
        <ele>95.2</ele>
      </trkpt>
      <trkpt lat="48.50424" lon="2.46733">
        <ele>94.33</ele>
        <time>2023-10-29T13:50:53.001Z</time>
      </trkpt>
      <trkpt lat="48.50429" lon="2.46707">
        <ele>99.62</ele>
        <time>2023-10-29T13:51:45.001Z</time>
      </trkpt>
      <trkpt lat="48.5043" lon="2.46704">
        <ele>94.2</ele>
      </trkpt>
      <trkpt lat="48.50435" lon="2.46681">
        <ele>94.4</ele>
        <time>2023-10-29T13:52:02.000Z</time>
      </trkpt>
      <trkpt lat="48.50444" lon="2.46663">
        <ele>92.9</ele>
      </trkpt>
      <trkpt lat="48.50446" lon="2.46664">
        <ele>92.9</ele>
      </trkpt>
      <trkpt lat="48.50452" lon="2.46651">
        <ele>92.4</ele>
      </trkpt>
      <trkpt lat="48.5046" lon="2.46622">
        <ele>92</ele>
      </trkpt>
      <trkpt lat="48.50459" lon="2.46401">
        <ele>95.5</ele>
      </trkpt>
      <trkpt lat="48.50459" lon="2.46391">
        <ele>95.5</ele>
      </trkpt>
      <trkpt lat="48.50459" lon="2.46282">
        <ele>96.4</ele>
      </trkpt>
      <trkpt lat="48.50477" lon="2.46074">
        <ele>105.5</ele>
      </trkpt>
      <trkpt lat="48.50485" lon="2.46028">
        <ele>107.5</ele>
      </trkpt>
      <trkpt lat="48.50492" lon="2.45994">
        <ele>107.2</ele>
      </trkpt>
      <trkpt lat="48.50515" lon="2.45945">
        <ele>104.9</ele>
      </trkpt>
      <trkpt lat="48.50517" lon="2.45937">
        <ele>104.5</ele>
      </trkpt>
      <trkpt lat="48.50522" lon="2.45916">
        <ele>103.4</ele>
      </trkpt>
      <trkpt lat="48.5052" lon="2.45915">
        <ele>103.5</ele>
      </trkpt>
      <trkpt lat="48.50523" lon="2.45904">
        <ele>100</ele>
        <time>2023-10-29T14:02:41.001Z</time>
      </trkpt>
      <trkpt lat="48.50534" lon="2.45883">
        <ele>95.82</ele>
        <time>2023-10-29T14:03:00.001Z</time>
      </trkpt>
      <trkpt lat="48.50548" lon="2.45865">
        <ele>92.6</ele>
        <time>2023-10-29T14:03:18.001Z</time>
      </trkpt>
      <trkpt lat="48.50563" lon="2.45849">
        <ele>95.11</ele>
        <time>2023-10-29T14:03:36.001Z</time>
      </trkpt>
      <trkpt lat="48.50579" lon="2.45835">
        <ele>92.76</ele>
        <time>2023-10-29T14:03:52.001Z</time>
      </trkpt>
      <trkpt lat="48.50596" lon="2.45823">
        <ele>93.3</ele>
        <time>2023-10-29T14:04:12.001Z</time>
      </trkpt>
      <trkpt lat="48.50611" lon="2.45806">
        <ele>98.28</ele>
        <time>2023-10-29T14:05:13.001Z</time>
      </trkpt>
      <trkpt lat="48.50624" lon="2.45788">
        <ele>96.8</ele>
        <time>2023-10-29T14:05:50.001Z</time>
      </trkpt>
      <trkpt lat="48.50633" lon="2.45762">
        <ele>93.32</ele>
        <time>2023-10-29T14:06:18.001Z</time>
      </trkpt>
      <trkpt lat="48.50641" lon="2.45737">
        <ele>94.42</ele>
        <time>2023-10-29T14:06:36.001Z</time>
      </trkpt>
      <trkpt lat="48.50653" lon="2.45717">
        <ele>93.39</ele>
        <time>2023-10-29T14:06:53.001Z</time>
      </trkpt>
      <trkpt lat="48.50667" lon="2.45698">
        <ele>93.57</ele>
        <time>2023-10-29T14:07:11.001Z</time>
      </trkpt>
      <trkpt lat="48.50679" lon="2.45676">
        <ele>94.62</ele>
        <time>2023-10-29T14:07:27.001Z</time>
      </trkpt>
      <trkpt lat="48.50689" lon="2.45664">
        <ele>93.5</ele>
      </trkpt>
      <trkpt lat="48.50688" lon="2.4566">
        <ele>93.8</ele>
      </trkpt>
      <trkpt lat="48.5069" lon="2.45658">
        <ele>93.7</ele>
      </trkpt>
      <trkpt lat="48.50702" lon="2.45654">
        <ele>92.6</ele>
      </trkpt>
      <trkpt lat="48.50714" lon="2.45654">
        <ele>91.3</ele>
      </trkpt>
      <trkpt lat="48.50726" lon="2.4565">
        <ele>90.5</ele>
      </trkpt>
      <trkpt lat="48.50745" lon="2.45641">
        <ele>90.1</ele>
      </trkpt>
      <trkpt lat="48.50771" lon="2.45612">
        <ele>88.5</ele>
      </trkpt>
      <trkpt lat="48.5082" lon="2.45569">
        <ele>86.5</ele>
      </trkpt>
      <trkpt lat="48.50828" lon="2.45562">
        <ele>86.2</ele>
      </trkpt>
      <trkpt lat="48.50837" lon="2.45555">
        <ele>86</ele>
      </trkpt>
      <trkpt lat="48.50841" lon="2.45552">
        <ele>86.1</ele>
      </trkpt>
      <trkpt lat="48.50842" lon="2.45544">
        <ele>86.3</ele>
      </trkpt>
      <trkpt lat="48.50845" lon="2.45521">
        <ele>86.8</ele>
      </trkpt>
      <trkpt lat="48.50845" lon="2.45512">
        <ele>87.1</ele>
      </trkpt>
      <trkpt lat="48.50844" lon="2.45471">
        <ele>88.7</ele>
      </trkpt>
      <trkpt lat="48.50845" lon="2.45458">
        <ele>89.1</ele>
      </trkpt>
      <trkpt lat="48.50814" lon="2.45408">
        <ele>91</ele>
      </trkpt>
      <trkpt lat="48.50802" lon="2.45401">
        <ele>91</ele>
      </trkpt>
      <trkpt lat="48.50792" lon="2.45397">
        <ele>91</ele>
      </trkpt>
      <trkpt lat="48.50787" lon="2.45389">
        <ele>91</ele>
      </trkpt>
      <trkpt lat="48.50785" lon="2.45377">
        <ele>91</ele>
      </trkpt>
      <trkpt lat="48.50792" lon="2.45282">
        <ele>89.1</ele>
      </trkpt>
      <trkpt lat="48.50792" lon="2.45275">
        <ele>89</ele>
      </trkpt>
      <trkpt lat="48.5079" lon="2.45275">
        <ele>89.1</ele>
      </trkpt>
      <trkpt lat="48.50792" lon="2.45275">
        <ele>89</ele>
      </trkpt>
      <trkpt lat="48.50793" lon="2.45232">
        <ele>89.3</ele>
      </trkpt>
      <trkpt lat="48.50795" lon="2.45199">
        <ele>89.4</ele>
      </trkpt>
      <trkpt lat="48.50786" lon="2.45198">
        <ele>89.7</ele>
      </trkpt>
      <trkpt lat="48.50783" lon="2.45193">
        <ele>89.9</ele>
      </trkpt>
      <trkpt lat="48.50781" lon="2.45188">
        <ele>90.1</ele>
      </trkpt>
      <trkpt lat="48.5079" lon="2.4507">
        <ele>89.8</ele>
      </trkpt>
      <trkpt lat="48.50793" lon="2.45058">
        <ele>89.5</ele>
      </trkpt>
      <trkpt lat="48.50797" lon="2.45051">
        <ele>89.3</ele>
      </trkpt>
      <trkpt lat="48.50802" lon="2.45048">
        <ele>89.1</ele>
      </trkpt>
      <trkpt lat="48.50807" lon="2.45047">
        <ele>89</ele>
      </trkpt>
      <trkpt lat="48.50817" lon="2.45049">
        <ele>89</ele>
      </trkpt>
      <trkpt lat="48.50819" lon="2.4505">
        <ele>89</ele>
      </trkpt>
      <trkpt lat="48.50823" lon="2.45049">
        <ele>89</ele>
      </trkpt>
      <trkpt lat="48.50823" lon="2.45049">
        <ele>89</ele>
      </trkpt>
      <trkpt lat="48.50827" lon="2.45044">
        <ele>89</ele>
      </trkpt>
      <trkpt lat="48.50831" lon="2.45034">
        <ele>89</ele>
      </trkpt>
      <trkpt lat="48.50834" lon="2.45023">
        <ele>88.8</ele>
      </trkpt>
      <trkpt lat="48.50857" lon="2.44945">
        <ele>88</ele>
      </trkpt>
      <trkpt lat="48.50858" lon="2.44943">
        <ele>88</ele>
      </trkpt>
      <trkpt lat="48.50861" lon="2.44932">
        <ele>88</ele>
      </trkpt>
      <trkpt lat="48.50892" lon="2.44936">
        <ele>89.2</ele>
      </trkpt>
      <trkpt lat="48.50896" lon="2.44938">
        <ele>89.5</ele>
      </trkpt>
      <trkpt lat="48.50899" lon="2.44931">
        <ele>89.7</ele>
      </trkpt>
      <trkpt lat="48.50914" lon="2.44889">
        <ele>89.9</ele>
      </trkpt>
      <trkpt lat="48.50942" lon="2.44824">
        <ele>89.6</ele>
      </trkpt>
      <trkpt lat="48.50964" lon="2.44783">
        <ele>87.5</ele>
      </trkpt>
      <trkpt lat="48.50998" lon="2.44722">
        <ele>85.1</ele>
      </trkpt>
      <trkpt lat="48.51033" lon="2.44703">
        <ele>83.9</ele>
      </trkpt>
      <trkpt lat="48.5106" lon="2.44691">
        <ele>83.9</ele>
      </trkpt>
      <trkpt lat="48.511" lon="2.44673">
        <ele>83.8</ele>
      </trkpt>
      <trkpt lat="48.51114" lon="2.44664">
        <ele>83.9</ele>
      </trkpt>
      <trkpt lat="48.51116" lon="2.44663">
        <ele>83.8</ele>
      </trkpt>
      <trkpt lat="48.51134" lon="2.44645">
        <ele>83.8</ele>
      </trkpt>
      <trkpt lat="48.51142" lon="2.44633">
        <ele>83.9</ele>
      </trkpt>
      <trkpt lat="48.51152" lon="2.44612">
        <ele>83.5</ele>
      </trkpt>
      <trkpt lat="48.51169" lon="2.4457">
        <ele>84.4</ele>
      </trkpt>
      <trkpt lat="48.5118" lon="2.44543">
        <ele>84.3</ele>
      </trkpt>
      <trkpt lat="48.51184" lon="2.44532">
        <ele>84.3</ele>
      </trkpt>
      <trkpt lat="48.51195" lon="2.44487">
        <ele>84.4</ele>
      </trkpt>
      <trkpt lat="48.51199" lon="2.44468">
        <ele>85</ele>
      </trkpt>
      <trkpt lat="48.51205" lon="2.44457">
        <ele>85.2</ele>
      </trkpt>
      <trkpt lat="48.51233" lon="2.44416">
        <ele>84.6</ele>
      </trkpt>
      <trkpt lat="48.51254" lon="2.44382">
        <ele>85.1</ele>
      </trkpt>
      <trkpt lat="48.51263" lon="2.4439">
        <ele>84.5</ele>
      </trkpt>
      <trkpt lat="48.51371" lon="2.44488">
        <ele>81.6</ele>
      </trkpt>
      <trkpt lat="48.51408" lon="2.44522">
        <ele>80.9</ele>
      </trkpt>
      <trkpt lat="48.51428" lon="2.44539">
        <ele>80.6</ele>
      </trkpt>
      <trkpt lat="48.51444" lon="2.44549">
        <ele>80</ele>
      </trkpt>
      <trkpt lat="48.51454" lon="2.44552">
        <ele>80</ele>
      </trkpt>
      <trkpt lat="48.51465" lon="2.44528">
        <ele>80</ele>
      </trkpt>
      <trkpt lat="48.51471" lon="2.44517">
        <ele>80</ele>
      </trkpt>
      <trkpt lat="48.51477" lon="2.44511">
        <ele>80</ele>
      </trkpt>
      <trkpt lat="48.51487" lon="2.44507">
        <ele>80</ele>
      </trkpt>
      <trkpt lat="48.51483" lon="2.44497">
        <ele>80</ele>
      </trkpt>
      <trkpt lat="48.51446" lon="2.4439">
        <ele>80.1</ele>
      </trkpt>
      <trkpt lat="48.51459" lon="2.44367">
        <ele>80.9</ele>
      </trkpt>
      <trkpt lat="48.51459" lon="2.44366">
        <ele>80.9</ele>
      </trkpt>
      <trkpt lat="48.51459" lon="2.44366">
        <ele>80.9</ele>
        <extensions>
          <visugpx:TrkExtension xmlns:visugpx="https://www.visugpx.com/editgpx/">
            <visugpx:node>1</visugpx:node>
            </visugpx:TrkExtension>
        </extensions>
      </trkpt>
    </trkseg>
  </trk>
</gpx>